<?xml version='1.0' encoding='UTF-8'?><gpx version="1.1" creator="JPX - https://github.com/jenetics/jpx" xmlns="http://www.topografix.com/GPX/1/1"><trk><trkseg><trkpt lat="44.830441264962275" lon="4.80930897083097"><ele>96.0</ele><time>2026-04-19T13:18:10.003Z</time></trkpt><trkpt lat="44.83048950520102" lon="4.809372059035086"><ele>96.0</ele><time>2026-04-19T13:18:31.003Z</time></trkpt><trkpt lat="44.8305769155718" lon="4.8093023881786"><ele>96.0</ele><time>2026-04-19T13:19:36.071Z</time></trkpt><trkpt lat="44.830686575450805" lon="4.809244044705775"><ele>96.0</ele><time>2026-04-19T13:19:39.517Z</time></trkpt><trkpt lat="44.83075793368623" lon="4.809188938665966"><ele>96.0</ele><time>2026-04-19T13:19:41.417Z</time></trkpt><trkpt lat="44.83083577661347" lon="4.809126675826633"><ele>96.0</ele><time>2026-04-19T13:19:43.317Z</time></trkpt><trkpt lat="44.83090360626111" lon="4.8090749804075665"><ele>96.0</ele><time>2026-04-19T13:19:45.217Z</time></trkpt><trkpt lat="44.830973239869614" lon="4.809056622349986"><ele>96.0</ele><time>2026-04-19T13:19:47.117Z</time></trkpt><trkpt lat="44.83105040882458" lon="4.809022439590736"><ele>96.0</ele><time>2026-04-19T13:19:49.018Z</time></trkpt><trkpt lat="44.83112168667173" lon="4.808956857479748"><ele>96.0</ele><time>2026-04-19T13:19:51.003Z</time></trkpt><trkpt lat="44.83118885775988" lon="4.80886707139686"><ele>96.0</ele><time>2026-04-19T13:19:53.003Z</time></trkpt><trkpt lat="44.831255995656626" lon="4.808792213590433"><ele>96.16666666666667</ele><time>2026-04-19T13:19:55.003Z</time></trkpt><trkpt lat="44.83132270401491" lon="4.808712537783089"><ele>96.33333333333334</ele><time>2026-04-19T13:19:57.004Z</time></trkpt><trkpt lat="44.831389612244394" lon="4.8086316031773535"><ele>96.5</ele><time>2026-04-19T13:19:59.004Z</time></trkpt><trkpt lat="44.83146846748368" lon="4.808569534423353"><ele>96.66666666666667</ele><time>2026-04-19T13:20:01.004Z</time></trkpt><trkpt lat="44.8315435087769" lon="4.8085181731515725"><ele>96.83333333333334</ele><time>2026-04-19T13:20:03.004Z</time></trkpt><trkpt lat="44.83160241121226" lon="4.808459210571013"><ele>97.0</ele><time>2026-04-19T13:20:05.004Z</time></trkpt><trkpt lat="44.83165504835258" lon="4.808399703018056"><ele>97.33333333333334</ele><time>2026-04-19T13:20:07.004Z</time></trkpt><trkpt lat="44.83172269404725" lon="4.808319602666851"><ele>97.66666666666667</ele><time>2026-04-19T13:20:10.004Z</time></trkpt><trkpt lat="44.83172937093959" lon="4.808224762092638"><ele>98.0</ele><time>2026-04-19T13:20:12.004Z</time></trkpt><trkpt lat="44.831670323979154" lon="4.808113609268883"><ele>98.33333333333334</ele><time>2026-04-19T13:20:15.004Z</time></trkpt><trkpt lat="44.831596768519645" lon="4.808027213610786"><ele>98.66666666666667</ele><time>2026-04-19T13:20:17.004Z</time></trkpt><trkpt lat="44.83154899368753" lon="4.807937674145817"><ele>99.0</ele><time>2026-04-19T13:20:19.004Z</time></trkpt><trkpt lat="44.83149435469213" lon="4.8078599841461145"><ele>99.0</ele><time>2026-04-19T13:20:21.004Z</time></trkpt><trkpt lat="44.83143214314097" lon="4.807791720261111"><ele>99.0</ele><time>2026-04-19T13:20:23.005Z</time></trkpt><trkpt lat="44.831368018031874" lon="4.807738105313139"><ele>99.0</ele><time>2026-04-19T13:20:25.005Z</time></trkpt><trkpt lat="44.83130643453016" lon="4.8076856628123785"><ele>99.0</ele><time>2026-04-19T13:20:27.005Z</time></trkpt><trkpt lat="44.83126660317524" lon="4.8075976778018195"><ele>99.0</ele><time>2026-04-19T13:20:44.005Z</time></trkpt><trkpt lat="44.8312112153147" lon="4.807530414022685"><ele>99.0</ele><time>2026-04-19T13:20:47.005Z</time></trkpt><trkpt lat="44.8311789324561" lon="4.807452318061452"><ele>99.0</ele><time>2026-04-19T13:20:49.005Z</time></trkpt><trkpt lat="44.83112485431421" lon="4.807381870481113"><ele>98.83333333333333</ele><time>2026-04-19T13:20:51.005Z</time></trkpt><trkpt lat="44.83105012333464" lon="4.80732746671937"><ele>98.66666666666666</ele><time>2026-04-19T13:20:53.005Z</time></trkpt><trkpt lat="44.83097233558725" lon="4.807274731087702"><ele>98.5</ele><time>2026-04-19T13:20:55.005Z</time></trkpt><trkpt lat="44.830896709307154" lon="4.807222578100484"><ele>98.33333333333333</ele><time>2026-04-19T13:20:57.005Z</time></trkpt><trkpt lat="44.830818215522065" lon="4.807142486695381"><ele>98.16666666666666</ele><time>2026-04-19T13:20:59.005Z</time></trkpt><trkpt lat="44.83074048732735" lon="4.807087202996367"><ele>98.0</ele><time>2026-04-19T13:21:01.005Z</time></trkpt><trkpt lat="44.83066330068963" lon="4.807015753834981"><ele>98.0</ele><time>2026-04-19T13:21:03.005Z</time></trkpt><trkpt lat="44.830585445729064" lon="4.806948251303704"><ele>98.0</ele><time>2026-04-19T13:21:05.005Z</time></trkpt><trkpt lat="44.83050417359502" lon="4.806888041676141"><ele>98.0</ele><time>2026-04-19T13:21:07.005Z</time></trkpt><trkpt lat="44.83043951170652" lon="4.806806490911476"><ele>98.0</ele><time>2026-04-19T13:21:09.005Z</time></trkpt><trkpt lat="44.830363703481225" lon="4.80674091088089"><ele>98.0</ele><time>2026-04-19T13:21:11.005Z</time></trkpt><trkpt lat="44.83027591686443" lon="4.8066917788774965"><ele>98.60000000000001</ele><time>2026-04-19T13:21:13.005Z</time></trkpt><trkpt lat="44.8301950550798" lon="4.806618032104505"><ele>99.2</ele><time>2026-04-19T13:21:15.005Z</time></trkpt><trkpt lat="44.830112063409324" lon="4.806551302346951"><ele>99.8</ele><time>2026-04-19T13:21:17.005Z</time></trkpt><trkpt lat="44.83002709391195" lon="4.806469381852316"><ele>100.4</ele><time>2026-04-19T13:21:19.005Z</time></trkpt><trkpt lat="44.82993622134836" lon="4.806392630211582"><ele>101.0</ele><time>2026-04-19T13:21:21.005Z</time></trkpt><trkpt lat="44.8298398681486" lon="4.806313848069532"><ele>101.0</ele><time>2026-04-19T13:21:23.005Z</time></trkpt><trkpt lat="44.829744537766516" lon="4.806240410085874"><ele>101.0</ele><time>2026-04-19T13:21:25.005Z</time></trkpt><trkpt lat="44.82965284899512" lon="4.806166284986796"><ele>101.0</ele><time>2026-04-19T13:21:27.005Z</time></trkpt><trkpt lat="44.82956144991657" lon="4.806098536825145"><ele>101.0</ele><time>2026-04-19T13:21:29.005Z</time></trkpt><trkpt lat="44.82947117734976" lon="4.80602259962707"><ele>101.0</ele><time>2026-04-19T13:21:31.005Z</time></trkpt><trkpt lat="44.82937746724811" lon="4.805962907381742"><ele>102.19999999999999</ele><time>2026-04-19T13:21:33.005Z</time></trkpt><trkpt lat="44.82928454892049" lon="4.8058937511644695"><ele>103.39999999999999</ele><time>2026-04-19T13:21:35.005Z</time></trkpt><trkpt lat="44.829188419847895" lon="4.805831561824459"><ele>104.6</ele><time>2026-04-19T13:21:37.005Z</time></trkpt><trkpt lat="44.82908973331479" lon="4.805766537924587"><ele>105.8</ele><time>2026-04-19T13:21:39.005Z</time></trkpt><trkpt lat="44.828995767077195" lon="4.805699563094477"><ele>107.0</ele><time>2026-04-19T13:21:41.005Z</time></trkpt><trkpt lat="44.828907395971825" lon="4.805638491432315"><ele>107.0</ele><time>2026-04-19T13:21:43.005Z</time></trkpt><trkpt lat="44.828814011996826" lon="4.805561035243013"><ele>106.99999999999999</ele><time>2026-04-19T13:21:45.005Z</time></trkpt><trkpt lat="44.82872263735431" lon="4.805483477140201"><ele>106.99999999999999</ele><time>2026-04-19T13:21:47.005Z</time></trkpt><trkpt lat="44.82863055680532" lon="4.805421058641735"><ele>107.0</ele><time>2026-04-19T13:21:49.005Z</time></trkpt><trkpt lat="44.82854835933741" lon="4.8053488922860765"><ele>107.0</ele><time>2026-04-19T13:21:51.005Z</time></trkpt><trkpt lat="44.82846259184119" lon="4.805272896035348"><ele>107.8</ele><time>2026-04-19T13:21:53.005Z</time></trkpt><trkpt lat="44.828374277366876" lon="4.8051901640126875"><ele>108.6</ele><time>2026-04-19T13:21:55.005Z</time></trkpt><trkpt lat="44.82829273195354" lon="4.805108589410371"><ele>109.39999999999999</ele><time>2026-04-19T13:21:57.005Z</time></trkpt><trkpt lat="44.82819189417402" lon="4.805049067248202"><ele>110.19999999999999</ele><time>2026-04-19T13:21:59.005Z</time></trkpt><trkpt lat="44.82812409276538" lon="4.8049654143280485"><ele>111.0</ele><time>2026-04-19T13:22:01.005Z</time></trkpt><trkpt lat="44.8280293771598" lon="4.80490608895754"><ele>111.0</ele><time>2026-04-19T13:22:03.005Z</time></trkpt><trkpt lat="44.827946637645525" lon="4.804819726425579"><ele>111.0</ele><time>2026-04-19T13:22:05.005Z</time></trkpt><trkpt lat="44.827862321934944" lon="4.804741047648951"><ele>111.0</ele><time>2026-04-19T13:22:07.005Z</time></trkpt><trkpt lat="44.82777408085251" lon="4.804671918613217"><ele>111.0</ele><time>2026-04-19T13:22:09.005Z</time></trkpt><trkpt lat="44.827688171546484" lon="4.804602259280848"><ele>111.0</ele><time>2026-04-19T13:22:11.005Z</time></trkpt><trkpt lat="44.82760333079" lon="4.804529064453562"><ele>110.8</ele><time>2026-04-19T13:22:13.005Z</time></trkpt><trkpt lat="44.82751896319026" lon="4.804455594149651"><ele>110.6</ele><time>2026-04-19T13:22:15.005Z</time></trkpt><trkpt lat="44.82743729957309" lon="4.804374276781429"><ele>110.4</ele><time>2026-04-19T13:22:17.005Z</time></trkpt><trkpt lat="44.82735475760419" lon="4.80428599928326"><ele>110.2</ele><time>2026-04-19T13:22:19.005Z</time></trkpt><trkpt lat="44.82727708294491" lon="4.804195480107707"><ele>110.0</ele><time>2026-04-19T13:22:21.005Z</time></trkpt><trkpt lat="44.827198420707454" lon="4.80409935884346"><ele>110.0</ele><time>2026-04-19T13:22:23.005Z</time></trkpt><trkpt lat="44.82711661131063" lon="4.803997158354996"><ele>110.0</ele><time>2026-04-19T13:22:25.005Z</time></trkpt><trkpt lat="44.82703187882035" lon="4.8038938881143105"><ele>110.0</ele><time>2026-04-19T13:22:27.005Z</time></trkpt><trkpt lat="44.82695361339028" lon="4.8037913896472615"><ele>110.0</ele><time>2026-04-19T13:22:29.005Z</time></trkpt><trkpt lat="44.826871558982155" lon="4.803680834721918"><ele>110.0</ele><time>2026-04-19T13:22:31.005Z</time></trkpt><trkpt lat="44.826800997818964" lon="4.803561468832679"><ele>108.99999999999999</ele><time>2026-04-19T13:22:33.005Z</time></trkpt><trkpt lat="44.826722217916526" lon="4.803461533079637"><ele>108.0</ele><time>2026-04-19T13:22:35.005Z</time></trkpt><trkpt lat="44.826645956438526" lon="4.8033580838453345"><ele>107.0</ele><time>2026-04-19T13:22:37.005Z</time></trkpt><trkpt lat="44.82658690776215" lon="4.803257535834895"><ele>106.0</ele><time>2026-04-19T13:22:39.005Z</time></trkpt><trkpt lat="44.826545169342566" lon="4.803180753867693"><ele>104.99999999999999</ele><time>2026-04-19T13:22:41.005Z</time></trkpt><trkpt lat="44.82661556100192" lon="4.80320220181418"><ele>104.0</ele><time>2026-04-19T13:22:47.005Z</time></trkpt><trkpt lat="44.826673090789846" lon="4.803282473114527"><ele>103.99999999999999</ele><time>2026-04-19T13:22:50.006Z</time></trkpt><trkpt lat="44.826742871646616" lon="4.803375094960775"><ele>104.0</ele><time>2026-04-19T13:22:53.006Z</time></trkpt><trkpt lat="44.82681170740374" lon="4.8034370159676705"><ele>104.0</ele><time>2026-04-19T13:22:56.006Z</time></trkpt><trkpt lat="44.82686075965016" lon="4.8034973903674505"><ele>104.0</ele><time>2026-04-19T13:22:58.006Z</time></trkpt><trkpt lat="44.82690498333175" lon="4.8035637367290835"><ele>103.99999999999999</ele><time>2026-04-19T13:23:00.006Z</time></trkpt><trkpt lat="44.826954826489576" lon="4.803635983167886"><ele>104.0</ele><time>2026-04-19T13:23:03.006Z</time></trkpt><trkpt lat="44.82702351646443" lon="4.803704593932437"><ele>104.85714285714285</ele><time>2026-04-19T13:23:06.006Z</time></trkpt><trkpt lat="44.82708954443906" lon="4.803777761441254"><ele>105.71428571428572</ele><time>2026-04-19T13:23:10.006Z</time></trkpt><trkpt lat="44.827136178534715" lon="4.803838655422725"><ele>106.57142857142857</ele><time>2026-04-19T13:23:13.006Z</time></trkpt><trkpt lat="44.827196784126414" lon="4.803902554251341"><ele>107.42857142857142</ele><time>2026-04-19T13:23:16.006Z</time></trkpt><trkpt lat="44.827255015147614" lon="4.803968101132469"><ele>108.28571428571428</ele><time>2026-04-19T13:23:19.006Z</time></trkpt><trkpt lat="44.8273009603474" lon="4.8040318994026645"><ele>109.14285714285714</ele><time>2026-04-19T13:23:22.006Z</time></trkpt><trkpt lat="44.82735883632542" lon="4.804094714279693"><ele>110.0</ele><time>2026-04-19T13:23:25.006Z</time></trkpt><trkpt lat="44.82741795165927" lon="4.804148696670196"><ele>109.99999999999999</ele><time>2026-04-19T13:23:28.006Z</time></trkpt><trkpt lat="44.82747466897997" lon="4.8042007216187"><ele>110.0</ele><time>2026-04-19T13:23:31.006Z</time></trkpt><trkpt lat="44.82753711327865" lon="4.804243106841384"><ele>110.0</ele><time>2026-04-19T13:23:34.006Z</time></trkpt><trkpt lat="44.82759974464205" lon="4.804317327011625"><ele>110.0</ele><time>2026-04-19T13:23:38.006Z</time></trkpt><trkpt lat="44.82766633092304" lon="4.8043722701590745"><ele>110.0</ele><time>2026-04-19T13:23:42.006Z</time></trkpt><trkpt lat="44.827721356702284" lon="4.80441731091372"><ele>109.99999999999999</ele><time>2026-04-19T13:23:45.006Z</time></trkpt><trkpt lat="44.82779541918464" lon="4.804451984585443"><ele>110.0</ele><time>2026-04-19T13:23:49.006Z</time></trkpt><trkpt lat="44.827855873526865" lon="4.8044790156375"><ele>110.14285714285714</ele><time>2026-04-19T13:23:52.006Z</time></trkpt><trkpt lat="44.82793016733639" lon="4.804520147922976"><ele>110.28571428571428</ele><time>2026-04-19T13:23:56.006Z</time></trkpt><trkpt lat="44.828002092083814" lon="4.804549920033069"><ele>110.42857142857142</ele><time>2026-04-19T13:24:00.006Z</time></trkpt><trkpt lat="44.82807766949007" lon="4.804576864612097"><ele>110.57142857142857</ele><time>2026-04-19T13:24:04.006Z</time></trkpt><trkpt lat="44.82813602597166" lon="4.804617541593803"><ele>110.71428571428572</ele><time>2026-04-19T13:24:08.006Z</time></trkpt><trkpt lat="44.828214017882345" lon="4.804631912680068"><ele>110.85714285714285</ele><time>2026-04-19T13:24:21.006Z</time></trkpt><trkpt lat="44.82828202457166" lon="4.804667562067133"><ele>111.0</ele><time>2026-04-19T13:24:25.006Z</time></trkpt><trkpt lat="44.82834074977727" lon="4.804704916770662"><ele>111.0</ele><time>2026-04-19T13:24:28.006Z</time></trkpt><trkpt lat="44.828393707529315" lon="4.804761334854168"><ele>111.0</ele><time>2026-04-19T13:24:31.006Z</time></trkpt><trkpt lat="44.8284543327553" lon="4.8048333828469385"><ele>111.0</ele><time>2026-04-19T13:24:34.006Z</time></trkpt><trkpt lat="44.828527325435665" lon="4.8049138313291095"><ele>111.0</ele><time>2026-04-19T13:24:38.006Z</time></trkpt><trkpt lat="44.82859909286255" lon="4.804975960313163"><ele>111.0</ele><time>2026-04-19T13:24:42.006Z</time></trkpt><trkpt lat="44.82865493698392" lon="4.805049099750869"><ele>111.0</ele><time>2026-04-19T13:24:46.006Z</time></trkpt><trkpt lat="44.82870759356333" lon="4.805108324314198"><ele>110.42857142857143</ele><time>2026-04-19T13:24:49.006Z</time></trkpt><trkpt lat="44.8287616246669" lon="4.805166891417437"><ele>109.85714285714286</ele><time>2026-04-19T13:24:52.006Z</time></trkpt><trkpt lat="44.82880981137284" lon="4.805231064545839"><ele>109.28571428571429</ele><time>2026-04-19T13:24:55.006Z</time></trkpt><trkpt lat="44.82886942646174" lon="4.805271323828342"><ele>108.71428571428572</ele><time>2026-04-19T13:24:58.006Z</time></trkpt><trkpt lat="44.82893164971881" lon="4.805293767022665"><ele>108.14285714285714</ele><time>2026-04-19T13:25:01.006Z</time></trkpt><trkpt lat="44.82899814709519" lon="4.8053124611534805"><ele>107.57142857142858</ele><time>2026-04-19T13:25:04.006Z</time></trkpt><trkpt lat="44.82907838884316" lon="4.805331184781353"><ele>107.0</ele><time>2026-04-19T13:25:08.006Z</time></trkpt><trkpt lat="44.829144597353995" lon="4.805349780653705"><ele>107.00000000000001</ele><time>2026-04-19T13:25:11.006Z</time></trkpt><trkpt lat="44.829214911724215" lon="4.80538122824294"><ele>107.0</ele><time>2026-04-19T13:25:15.007Z</time></trkpt><trkpt lat="44.829276578921316" lon="4.805418128659305"><ele>107.0</ele><time>2026-04-19T13:25:19.007Z</time></trkpt><trkpt lat="44.82934776498126" lon="4.805458871074736"><ele>107.0</ele><time>2026-04-19T13:25:23.007Z</time></trkpt><trkpt lat="44.82942180981107" lon="4.805503583734461"><ele>107.0</ele><time>2026-04-19T13:25:27.007Z</time></trkpt><trkpt lat="44.82947908765716" lon="4.805549713231832"><ele>107.00000000000001</ele><time>2026-04-19T13:25:30.007Z</time></trkpt><trkpt lat="44.82955068620762" lon="4.805586392347831"><ele>107.0</ele><time>2026-04-19T13:25:34.007Z</time></trkpt><trkpt lat="44.82961025037659" lon="4.80562335098106"><ele>108.71428571428572</ele><time>2026-04-19T13:25:37.007Z</time></trkpt><trkpt lat="44.829674374260605" lon="4.805641398492962"><ele>110.42857142857143</ele><time>2026-04-19T13:25:40.007Z</time></trkpt><trkpt lat="44.8297482330283" lon="4.805698588837348"><ele>112.14285714285714</ele><time>2026-04-19T13:25:44.007Z</time></trkpt><trkpt lat="44.82980747646686" lon="4.805733349439695"><ele>113.85714285714286</ele><time>2026-04-19T13:25:47.007Z</time></trkpt><trkpt lat="44.82986502004839" lon="4.805777468288114"><ele>115.57142857142857</ele><time>2026-04-19T13:25:50.007Z</time></trkpt><trkpt lat="44.82993992805234" lon="4.805829678669226"><ele>117.28571428571429</ele><time>2026-04-19T13:25:54.007Z</time></trkpt><trkpt lat="44.83001051623925" lon="4.8058744736069645"><ele>119.0</ele><time>2026-04-19T13:25:58.007Z</time></trkpt><trkpt lat="44.8300806681997" lon="4.805918366698186"><ele>117.33333333333333</ele><time>2026-04-19T13:26:02.007Z</time></trkpt><trkpt lat="44.83015574081146" lon="4.8059427684015095"><ele>115.66666666666666</ele><time>2026-04-19T13:26:06.007Z</time></trkpt><trkpt lat="44.83023025395928" lon="4.80595577445471"><ele>114.0</ele><time>2026-04-19T13:26:13.007Z</time></trkpt><trkpt lat="44.83031002680658" lon="4.805968856745342"><ele>112.33333333333334</ele><time>2026-04-19T13:26:17.007Z</time></trkpt><trkpt lat="44.83037206718275" lon="4.805989248850515"><ele>110.66666666666667</ele><time>2026-04-19T13:26:21.007Z</time></trkpt><trkpt lat="44.83044086732992" lon="4.806001388033484"><ele>109.0</ele><time>2026-04-19T13:26:25.007Z</time></trkpt><trkpt lat="44.83052290762902" lon="4.806036237550471"><ele>109.0</ele><time>2026-04-19T13:26:30.007Z</time></trkpt><trkpt lat="44.83058856904146" lon="4.806054160851071"><ele>109.0</ele><time>2026-04-19T13:26:34.007Z</time></trkpt><trkpt lat="44.830654817225835" lon="4.80606874558375"><ele>109.0</ele><time>2026-04-19T13:26:38.007Z</time></trkpt><trkpt lat="44.83073229052817" lon="4.806087617145068"><ele>109.0</ele><time>2026-04-19T13:26:42.007Z</time></trkpt><trkpt lat="44.83080570295074" lon="4.806089261005669"><ele>109.0</ele><time>2026-04-19T13:26:46.007Z</time></trkpt><trkpt lat="44.83087577084556" lon="4.806071507941785"><ele>109.0</ele><time>2026-04-19T13:26:50.007Z</time></trkpt><trkpt lat="44.8309389213971" lon="4.8060593124443445"><ele>109.0</ele><time>2026-04-19T13:26:53.007Z</time></trkpt><trkpt lat="44.83101287571781" lon="4.806034442299832"><ele>109.28571428571429</ele><time>2026-04-19T13:26:57.007Z</time></trkpt><trkpt lat="44.83109397489646" lon="4.806013528901658"><ele>109.57142857142858</ele><time>2026-04-19T13:27:01.007Z</time></trkpt><trkpt lat="44.83115536244902" lon="4.80598908215402"><ele>109.85714285714286</ele><time>2026-04-19T13:27:05.007Z</time></trkpt><trkpt lat="44.83122882193871" lon="4.80595593901992"><ele>110.14285714285714</ele><time>2026-04-19T13:27:09.007Z</time></trkpt><trkpt lat="44.831306206709165" lon="4.805933166794975"><ele>110.42857142857143</ele><time>2026-04-19T13:27:13.007Z</time></trkpt><trkpt lat="44.831366637370785" lon="4.805906345093375"><ele>110.71428571428571</ele><time>2026-04-19T13:27:16.007Z</time></trkpt><trkpt lat="44.83144064974162" lon="4.8058650649984855"><ele>111.0</ele><time>2026-04-19T13:27:20.007Z</time></trkpt><trkpt lat="44.83151124910022" lon="4.805817880315336"><ele>114.28571428571428</ele><time>2026-04-19T13:27:24.007Z</time></trkpt><trkpt lat="44.83156802277236" lon="4.805754016519971"><ele>117.57142857142858</ele><time>2026-04-19T13:27:28.007Z</time></trkpt><trkpt lat="44.83162334603157" lon="4.805696832822087"><ele>120.85714285714286</ele><time>2026-04-19T13:27:31.007Z</time></trkpt><trkpt lat="44.83167819803979" lon="4.805641392938372"><ele>124.14285714285714</ele><time>2026-04-19T13:27:34.007Z</time></trkpt><trkpt lat="44.83172718560482" lon="4.805575849301126"><ele>127.42857142857142</ele><time>2026-04-19T13:27:37.007Z</time></trkpt><trkpt lat="44.831781728130004" lon="4.8055263206967"><ele>130.71428571428572</ele><time>2026-04-19T13:27:40.008Z</time></trkpt><trkpt lat="44.831832081359444" lon="4.8054711254258695"><ele>134.0</ele><time>2026-04-19T13:27:43.008Z</time></trkpt><trkpt lat="44.83190167968823" lon="4.80546892429662"><ele>134.71428571428572</ele><time>2026-04-19T13:27:47.008Z</time></trkpt><trkpt lat="44.831954883417886" lon="4.805540089802206"><ele>135.42857142857142</ele><time>2026-04-19T13:27:51.008Z</time></trkpt><trkpt lat="44.83199567610723" lon="4.805630678153385"><ele>136.14285714285714</ele><time>2026-04-19T13:27:55.008Z</time></trkpt><trkpt lat="44.83203155214982" lon="4.8057220869441455"><ele>136.85714285714286</ele><time>2026-04-19T13:27:59.008Z</time></trkpt><trkpt lat="44.832068071129996" lon="4.805808746148595"><ele>137.57142857142858</ele><time>2026-04-19T13:28:03.008Z</time></trkpt><trkpt lat="44.832109538588504" lon="4.805896790591616"><ele>138.28571428571428</ele><time>2026-04-19T13:28:07.008Z</time></trkpt><trkpt lat="44.832161805297154" lon="4.805949575608818"><ele>139.0</ele><time>2026-04-19T13:28:11.008Z</time></trkpt><trkpt lat="44.832229305377425" lon="4.8059701542809865"><ele>139.0</ele><time>2026-04-19T13:28:15.008Z</time></trkpt><trkpt lat="44.832292508419044" lon="4.805955718962842"><ele>139.0</ele><time>2026-04-19T13:28:19.008Z</time></trkpt><trkpt lat="44.83235903068945" lon="4.805932151383564"><ele>139.0</ele><time>2026-04-19T13:28:23.008Z</time></trkpt><trkpt lat="44.832425418055074" lon="4.8059137975386"><ele>139.0</ele><time>2026-04-19T13:28:27.008Z</time></trkpt><trkpt lat="44.83248810873843" lon="4.805888129223613"><ele>139.0</ele><time>2026-04-19T13:28:31.008Z</time></trkpt><trkpt lat="44.83255297968286" lon="4.80585893900069"><ele>139.0</ele><time>2026-04-19T13:28:35.008Z</time></trkpt><trkpt lat="44.83261988882303" lon="4.805823192554739"><ele>139.0</ele><time>2026-04-19T13:28:39.008Z</time></trkpt><trkpt lat="44.832683645625856" lon="4.805789179962493"><ele>138.42857142857142</ele><time>2026-04-19T13:28:43.008Z</time></trkpt><trkpt lat="44.83274140028913" lon="4.805751346802571"><ele>137.85714285714286</ele><time>2026-04-19T13:28:47.008Z</time></trkpt><trkpt lat="44.832813809857285" lon="4.805706542923731"><ele>137.28571428571428</ele><time>2026-04-19T13:28:52.008Z</time></trkpt><trkpt lat="44.83287907016804" lon="4.805654102809727"><ele>136.71428571428572</ele><time>2026-04-19T13:28:57.008Z</time></trkpt><trkpt lat="44.832937982148536" lon="4.805612684091785"><ele>136.14285714285714</ele><time>2026-04-19T13:29:01.008Z</time></trkpt><trkpt lat="44.83299289399554" lon="4.805551499610946"><ele>135.57142857142856</ele><time>2026-04-19T13:29:05.008Z</time></trkpt><trkpt lat="44.83302409508754" lon="4.805466262669446"><ele>135.0</ele><time>2026-04-19T13:29:09.008Z</time></trkpt><trkpt lat="44.833034697316386" lon="4.80535101134233"><ele>135.0</ele><time>2026-04-19T13:29:14.008Z</time></trkpt><trkpt lat="44.83301293979152" lon="4.8052614574781245"><ele>135.0</ele><time>2026-04-19T13:29:19.008Z</time></trkpt><trkpt lat="44.83299747686956" lon="4.805156416044228"><ele>135.0</ele><time>2026-04-19T13:29:24.008Z</time></trkpt><trkpt lat="44.83298682037192" lon="4.805068838991665"><ele>135.0</ele><time>2026-04-19T13:29:29.008Z</time></trkpt><trkpt lat="44.83297319793884" lon="4.804978022320057"><ele>135.0</ele><time>2026-04-19T13:29:33.008Z</time></trkpt><trkpt lat="44.83294635198503" lon="4.80489543668333"><ele>135.0</ele><time>2026-04-19T13:29:37.008Z</time></trkpt><trkpt lat="44.83289869573124" lon="4.804817409590847"><ele>135.0</ele><time>2026-04-19T13:29:42.008Z</time></trkpt><trkpt lat="44.83282354579647" lon="4.80479261035876"><ele>136.57142857142856</ele><time>2026-04-19T13:29:47.008Z</time></trkpt><trkpt lat="44.832766460444404" lon="4.804748736920299"><ele>138.14285714285714</ele><time>2026-04-19T13:29:51.008Z</time></trkpt><trkpt lat="44.83270161173909" lon="4.804714622744296"><ele>139.71428571428572</ele><time>2026-04-19T13:29:55.008Z</time></trkpt><trkpt lat="44.832640689929065" lon="4.804642269649856"><ele>141.28571428571428</ele><time>2026-04-19T13:29:59.008Z</time></trkpt><trkpt lat="44.83259157480287" lon="4.8045633857475725"><ele>142.85714285714286</ele><time>2026-04-19T13:30:03.009Z</time></trkpt><trkpt lat="44.83255745623396" lon="4.80448790933045"><ele>144.42857142857142</ele><time>2026-04-19T13:30:07.009Z</time></trkpt><trkpt lat="44.832520214088554" lon="4.804410106511705"><ele>146.0</ele><time>2026-04-19T13:30:11.009Z</time></trkpt><trkpt lat="44.83249512692691" lon="4.804320818209234"><ele>148.28571428571428</ele><time>2026-04-19T13:30:15.009Z</time></trkpt><trkpt lat="44.832467658770746" lon="4.804229877861492"><ele>150.57142857142858</ele><time>2026-04-19T13:30:19.009Z</time></trkpt><trkpt lat="44.83243526101938" lon="4.804147222631481"><ele>152.85714285714286</ele><time>2026-04-19T13:30:23.009Z</time></trkpt><trkpt lat="44.83240396589465" lon="4.804056807058989"><ele>155.14285714285714</ele><time>2026-04-19T13:30:27.009Z</time></trkpt><trkpt lat="44.832374062409244" lon="4.803962825326728"><ele>157.42857142857142</ele><time>2026-04-19T13:30:32.009Z</time></trkpt><trkpt lat="44.8323231613231" lon="4.803888092111345"><ele>159.71428571428572</ele><time>2026-04-19T13:30:36.009Z</time></trkpt><trkpt lat="44.83225191073039" lon="4.80386028528708"><ele>162.0</ele><time>2026-04-19T13:30:41.009Z</time></trkpt><trkpt lat="44.83219212971236" lon="4.803900979905648"><ele>162.0</ele><time>2026-04-19T13:30:46.009Z</time></trkpt><trkpt lat="44.832158325921405" lon="4.803998448455183"><ele>162.0</ele><time>2026-04-19T13:30:51.009Z</time></trkpt><trkpt lat="44.832144216884764" lon="4.804102568894849"><ele>162.0</ele><time>2026-04-19T13:30:56.009Z</time></trkpt><trkpt lat="44.83211534421233" lon="4.804183930002594"><ele>162.0</ele><time>2026-04-19T13:31:01.009Z</time></trkpt><trkpt lat="44.83204321262815" lon="4.804220004211114"><ele>162.0</ele><time>2026-04-19T13:31:05.009Z</time></trkpt><trkpt lat="44.83197676811531" lon="4.804189492439955"><ele>162.0</ele><time>2026-04-19T13:31:11.009Z</time></trkpt><trkpt lat="44.83192141612649" lon="4.804130977309896"><ele>162.0</ele><time>2026-04-19T13:31:16.009Z</time></trkpt><trkpt lat="44.831855076722775" lon="4.804064116587761"><ele>161.57142857142858</ele><time>2026-04-19T13:31:21.009Z</time></trkpt><trkpt lat="44.831798625845394" lon="4.804005167536324"><ele>161.14285714285714</ele><time>2026-04-19T13:31:26.009Z</time></trkpt><trkpt lat="44.831746012646036" lon="4.803948050611569"><ele>160.71428571428572</ele><time>2026-04-19T13:31:31.009Z</time></trkpt><trkpt lat="44.831684204492205" lon="4.803897125020034"><ele>160.28571428571428</ele><time>2026-04-19T13:31:35.009Z</time></trkpt><trkpt lat="44.831641426519205" lon="4.803817643310977"><ele>159.85714285714286</ele><time>2026-04-19T13:31:39.009Z</time></trkpt><trkpt lat="44.831585179195294" lon="4.8037561785668625"><ele>159.42857142857142</ele><time>2026-04-19T13:31:43.009Z</time></trkpt><trkpt lat="44.83153183165995" lon="4.8036981822689855"><ele>159.0</ele><time>2026-04-19T13:31:47.009Z</time></trkpt><trkpt lat="44.83147892139372" lon="4.803636162882806"><ele>159.0</ele><time>2026-04-19T13:31:51.009Z</time></trkpt><trkpt lat="44.83141674299289" lon="4.8035911299459375"><ele>159.0</ele><time>2026-04-19T13:31:55.009Z</time></trkpt><trkpt lat="44.8313522964092" lon="4.803576234783137"><ele>159.0</ele><time>2026-04-19T13:31:59.009Z</time></trkpt><trkpt lat="44.8312890132908" lon="4.803576354922523"><ele>159.0</ele><time>2026-04-19T13:32:03.009Z</time></trkpt><trkpt lat="44.83120989573701" lon="4.8036431271044195"><ele>159.0</ele><time>2026-04-19T13:32:08.009Z</time></trkpt><trkpt lat="44.83114784741107" lon="4.80368757103169"><ele>159.0</ele><time>2026-04-19T13:32:12.009Z</time></trkpt><trkpt lat="44.831070812238494" lon="4.8037014871306996"><ele>159.0</ele><time>2026-04-19T13:32:16.009Z</time></trkpt><trkpt lat="44.830998605464515" lon="4.803690197853625"><ele>159.85714285714286</ele><time>2026-04-19T13:32:20.009Z</time></trkpt><trkpt lat="44.83093815309514" lon="4.803642565382591"><ele>160.71428571428572</ele><time>2026-04-19T13:32:24.009Z</time></trkpt><trkpt lat="44.83089340830555" lon="4.8035777808781654"><ele>161.57142857142858</ele><time>2026-04-19T13:32:28.01Z</time></trkpt><trkpt lat="44.83082792225842" lon="4.803537970305155"><ele>162.42857142857144</ele><time>2026-04-19T13:32:32.01Z</time></trkpt><trkpt lat="44.83076025203411" lon="4.803542215290608"><ele>163.28571428571428</ele><time>2026-04-19T13:32:36.01Z</time></trkpt><trkpt lat="44.830696588032175" lon="4.803584365237832"><ele>164.14285714285717</ele><time>2026-04-19T13:32:40.01Z</time></trkpt><trkpt lat="44.83062007029193" lon="4.803618264683994"><ele>165.0</ele><time>2026-04-19T13:32:45.01Z</time></trkpt><trkpt lat="44.830551177962576" lon="4.803629065192228"><ele>165.00000000000003</ele><time>2026-04-19T13:32:49.005Z</time></trkpt><trkpt lat="44.83048357252332" lon="4.8036200697716644"><ele>165.0</ele><time>2026-04-19T13:32:53.005Z</time></trkpt><trkpt lat="44.830422129823525" lon="4.803567635976776"><ele>165.0</ele><time>2026-04-19T13:32:58.005Z</time></trkpt><trkpt lat="44.83036942447756" lon="4.803502389564735"><ele>165.0</ele><time>2026-04-19T13:33:03.005Z</time></trkpt><trkpt lat="44.83032231557479" lon="4.803442501494277"><ele>165.0</ele><time>2026-04-19T13:33:07.005Z</time></trkpt><trkpt lat="44.83028099340508" lon="4.8033619328038455"><ele>165.00000000000003</ele><time>2026-04-19T13:33:11.006Z</time></trkpt><trkpt lat="44.83023148725937" lon="4.803305368042938"><ele>165.0</ele><time>2026-04-19T13:33:15.006Z</time></trkpt><trkpt lat="44.830164522687106" lon="4.803261592659806"><ele>166.14285714285717</ele><time>2026-04-19T13:33:19.006Z</time></trkpt><trkpt lat="44.83010520759059" lon="4.80323165654846"><ele>167.28571428571428</ele><time>2026-04-19T13:33:23.006Z</time></trkpt><trkpt lat="44.83004064470447" lon="4.803194265291159"><ele>168.42857142857144</ele><time>2026-04-19T13:33:27.006Z</time></trkpt><trkpt lat="44.82997368829734" lon="4.803156304985939"><ele>169.57142857142858</ele><time>2026-04-19T13:33:31.006Z</time></trkpt><trkpt lat="44.829908265118185" lon="4.80311536133919"><ele>170.71428571428572</ele><time>2026-04-19T13:33:35.006Z</time></trkpt><trkpt lat="44.82983997883633" lon="4.803083752558472"><ele>171.85714285714286</ele><time>2026-04-19T13:33:39.006Z</time></trkpt><trkpt lat="44.82977635957184" lon="4.80304339594106"><ele>173.0</ele><time>2026-04-19T13:33:43.006Z</time></trkpt><trkpt lat="44.82970178039215" lon="4.803011982334527"><ele>173.0</ele><time>2026-04-19T13:33:48.006Z</time></trkpt><trkpt lat="44.8296387441862" lon="4.802982361693107"><ele>173.0</ele><time>2026-04-19T13:33:52.006Z</time></trkpt><trkpt lat="44.82956635428586" lon="4.802957212113482"><ele>173.0</ele><time>2026-04-19T13:33:56.006Z</time></trkpt><trkpt lat="44.82949114765795" lon="4.8029163602186395"><ele>173.0</ele><time>2026-04-19T13:34:01.006Z</time></trkpt><trkpt lat="44.829421910521226" lon="4.802889820928245"><ele>173.0</ele><time>2026-04-19T13:34:05.006Z</time></trkpt><trkpt lat="44.8293492293923" lon="4.802859441409595"><ele>173.0</ele><time>2026-04-19T13:34:10.006Z</time></trkpt><trkpt lat="44.8292893784078" lon="4.802831054957264"><ele>173.0</ele><time>2026-04-19T13:34:14.006Z</time></trkpt><trkpt lat="44.82922579592802" lon="4.8027988639770545"><ele>171.85714285714286</ele><time>2026-04-19T13:34:18.006Z</time></trkpt><trkpt lat="44.829167505618365" lon="4.802752816732713"><ele>170.71428571428572</ele><time>2026-04-19T13:34:22.006Z</time></trkpt><trkpt lat="44.8291074845782" lon="4.802707371459615"><ele>169.57142857142858</ele><time>2026-04-19T13:34:26.005Z</time></trkpt><trkpt lat="44.82904790549773" lon="4.802657933010042"><ele>168.42857142857144</ele><time>2026-04-19T13:34:30.005Z</time></trkpt><trkpt lat="44.828991375484456" lon="4.802606704645851"><ele>167.28571428571428</ele><time>2026-04-19T13:34:34.005Z</time></trkpt><trkpt lat="44.828924820562335" lon="4.802548290287039"><ele>166.14285714285717</ele><time>2026-04-19T13:34:39.006Z</time></trkpt><trkpt lat="44.828871033690746" lon="4.802500497804189"><ele>165.0</ele><time>2026-04-19T13:34:43.006Z</time></trkpt><trkpt lat="44.828816076574036" lon="4.8024471849871"><ele>166.00000000000003</ele><time>2026-04-19T13:34:47.006Z</time></trkpt><trkpt lat="44.82876167607158" lon="4.802399110253927"><ele>167.0</ele><time>2026-04-19T13:34:51.006Z</time></trkpt><trkpt lat="44.82870672023721" lon="4.802345326767992"><ele>168.0</ele><time>2026-04-19T13:34:55.006Z</time></trkpt><trkpt lat="44.82864918016825" lon="4.802292714445864"><ele>169.0</ele><time>2026-04-19T13:34:59.006Z</time></trkpt><trkpt lat="44.82859330548496" lon="4.802239794962993"><ele>170.0</ele><time>2026-04-19T13:35:03.006Z</time></trkpt><trkpt lat="44.82853328570845" lon="4.802208511188341"><ele>171.00000000000003</ele><time>2026-04-19T13:35:07.006Z</time></trkpt><trkpt lat="44.82847924604018" lon="4.802154871786269"><ele>172.0</ele><time>2026-04-19T13:35:11.006Z</time></trkpt><trkpt lat="44.82841928188999" lon="4.802120630694193"><ele>172.00000000000003</ele><time>2026-04-19T13:35:15.006Z</time></trkpt><trkpt lat="44.8283638266072" lon="4.8020743830295265"><ele>172.0</ele><time>2026-04-19T13:35:19.006Z</time></trkpt><trkpt lat="44.82830395916736" lon="4.802025965844287"><ele>172.0</ele><time>2026-04-19T13:35:23.006Z</time></trkpt><trkpt lat="44.82825345095568" lon="4.801956828079289"><ele>172.0</ele><time>2026-04-19T13:35:27.006Z</time></trkpt><trkpt lat="44.82820807371742" lon="4.801858785520736"><ele>172.0</ele><time>2026-04-19T13:35:32.006Z</time></trkpt><trkpt lat="44.8281843914398" lon="4.801755131964473"><ele>172.00000000000003</ele><time>2026-04-19T13:35:37.006Z</time></trkpt><trkpt lat="44.82815390937238" lon="4.801656598194738"><ele>172.0</ele><time>2026-04-19T13:35:42.006Z</time></trkpt><trkpt lat="44.8281293875821" lon="4.801553919920549"><ele>175.14285714285717</ele><time>2026-04-19T13:35:47.006Z</time></trkpt><trkpt lat="44.82812449682302" lon="4.801444797418897"><ele>178.28571428571428</ele><time>2026-04-19T13:35:52.006Z</time></trkpt><trkpt lat="44.82813270683697" lon="4.801348295810846"><ele>181.42857142857144</ele><time>2026-04-19T13:35:56.006Z</time></trkpt><trkpt lat="44.828143652698145" lon="4.801260150985834"><ele>184.57142857142858</ele><time>2026-04-19T13:36:00.006Z</time></trkpt><trkpt lat="44.82815713603106" lon="4.801156907613941"><ele>187.71428571428572</ele><time>2026-04-19T13:36:05.006Z</time></trkpt><trkpt lat="44.82817144253549" lon="4.8010689772900825"><ele>190.85714285714286</ele><time>2026-04-19T13:36:09.006Z</time></trkpt><trkpt lat="44.82818357452769" lon="4.80095883010001"><ele>194.0</ele><time>2026-04-19T13:36:14.006Z</time></trkpt><trkpt lat="44.828179520008746" lon="4.800859355782996"><ele>195.28571428571428</ele><time>2026-04-19T13:36:18.006Z</time></trkpt><trkpt lat="44.828174637634525" lon="4.800763005979128"><ele>196.57142857142858</ele><time>2026-04-19T13:36:22.006Z</time></trkpt><trkpt lat="44.82816420898205" lon="4.800672434848431"><ele>197.85714285714286</ele><time>2026-04-19T13:36:26.007Z</time></trkpt><trkpt lat="44.82814944723011" lon="4.800563502792218"><ele>199.14285714285714</ele><time>2026-04-19T13:36:31.007Z</time></trkpt><trkpt lat="44.82812653452905" lon="4.800457206219954"><ele>200.42857142857144</ele><time>2026-04-19T13:36:36.006Z</time></trkpt><trkpt lat="44.82808862703328" lon="4.800380721129837"><ele>201.71428571428572</ele><time>2026-04-19T13:36:40.006Z</time></trkpt><trkpt lat="44.82804467768598" lon="4.800317087573748"><ele>203.0</ele><time>2026-04-19T13:36:44.006Z</time></trkpt><trkpt lat="44.827972160348814" lon="4.800296975283034"><ele>203.0</ele><time>2026-04-19T13:36:49.006Z</time></trkpt><trkpt lat="44.8279053707208" lon="4.800311491158143"><ele>203.0</ele><time>2026-04-19T13:36:53.006Z</time></trkpt><trkpt lat="44.82783645936776" lon="4.8003019507588744"><ele>203.0</ele><time>2026-04-19T13:36:58.006Z</time></trkpt><trkpt lat="44.82776794816764" lon="4.80027183173211"><ele>203.0</ele><time>2026-04-19T13:37:03.006Z</time></trkpt><trkpt lat="44.827723560839985" lon="4.800204795168203"><ele>203.0</ele><time>2026-04-19T13:37:06.006Z</time></trkpt><trkpt lat="44.827695721444165" lon="4.800107013710913"><ele>203.0</ele><time>2026-04-19T13:37:11.006Z</time></trkpt><trkpt lat="44.82770393898581" lon="4.800010918862992"><ele>203.0</ele><time>2026-04-19T13:37:15.006Z</time></trkpt><trkpt lat="44.827716362465836" lon="4.799912452375799"><ele>204.85714285714286</ele><time>2026-04-19T13:37:19.006Z</time></trkpt><trkpt lat="44.82772783262561" lon="4.799823167675976"><ele>206.71428571428572</ele><time>2026-04-19T13:37:23.006Z</time></trkpt><trkpt lat="44.827737895387145" lon="4.799715902898803"><ele>208.57142857142856</ele><time>2026-04-19T13:37:28.006Z</time></trkpt><trkpt lat="44.82775846332703" lon="4.799622301155959"><ele>210.42857142857144</ele><time>2026-04-19T13:37:32.006Z</time></trkpt><trkpt lat="44.82780093805184" lon="4.799546242389806"><ele>212.28571428571428</ele><time>2026-04-19T13:37:36.006Z</time></trkpt><trkpt lat="44.82784272304502" lon="4.799476220762513"><ele>214.14285714285714</ele><time>2026-04-19T13:37:40.006Z</time></trkpt><trkpt lat="44.82789388244921" lon="4.799418340460297"><ele>216.0</ele><time>2026-04-19T13:37:44.006Z</time></trkpt><trkpt lat="44.82795001713987" lon="4.799373758240348"><ele>216.0</ele><time>2026-04-19T13:37:48.006Z</time></trkpt><trkpt lat="44.82801429267884" lon="4.799350806402896"><ele>216.0</ele><time>2026-04-19T13:37:52.006Z</time></trkpt><trkpt lat="44.82808660332373" lon="4.799355893288392"><ele>216.0</ele><time>2026-04-19T13:37:57.006Z</time></trkpt><trkpt lat="44.82816166064629" lon="4.799376799461724"><ele>216.0</ele><time>2026-04-19T13:38:02.006Z</time></trkpt><trkpt lat="44.828225383058346" lon="4.79940473149705"><ele>216.0</ele><time>2026-04-19T13:38:07.006Z</time></trkpt><trkpt lat="44.828294411422405" lon="4.799426300539203"><ele>216.0</ele><time>2026-04-19T13:38:12.006Z</time></trkpt><trkpt lat="44.82836879713538" lon="4.799449084852683"><ele>216.0</ele><time>2026-04-19T13:38:17.006Z</time></trkpt><trkpt lat="44.828440012611246" lon="4.799453163185493"><ele>217.71428571428572</ele><time>2026-04-19T13:38:22.006Z</time></trkpt><trkpt lat="44.82851443770444" lon="4.799440065483314"><ele>219.42857142857142</ele><time>2026-04-19T13:38:27.006Z</time></trkpt><trkpt lat="44.828575971317704" lon="4.7994185079226765"><ele>221.14285714285714</ele><time>2026-04-19T13:38:31.006Z</time></trkpt><trkpt lat="44.82864314608457" lon="4.7993842449401125"><ele>222.85714285714283</ele><time>2026-04-19T13:38:35.006Z</time></trkpt><trkpt lat="44.828718838638515" lon="4.79934675927031"><ele>224.57142857142856</ele><time>2026-04-19T13:38:39.006Z</time></trkpt><trkpt lat="44.82877399282833" lon="4.799287010918013"><ele>226.28571428571428</ele><time>2026-04-19T13:38:43.006Z</time></trkpt><trkpt lat="44.82881436939752" lon="4.7991916899675235"><ele>228.0</ele><time>2026-04-19T13:38:47.006Z</time></trkpt><trkpt lat="44.82883526766133" lon="4.799092485566893"><ele>228.0</ele><time>2026-04-19T13:38:52.005Z</time></trkpt><trkpt lat="44.828848801899504" lon="4.799003685961143"><ele>227.99999999999997</ele><time>2026-04-19T13:38:56.005Z</time></trkpt><trkpt lat="44.82886519881308" lon="4.798914015287397"><ele>228.0</ele><time>2026-04-19T13:39:00.005Z</time></trkpt><trkpt lat="44.82889585203968" lon="4.798808821092465"><ele>228.0</ele><time>2026-04-19T13:39:05.005Z</time></trkpt><trkpt lat="44.82891579608416" lon="4.798720215459305"><ele>227.99999999999997</ele><time>2026-04-19T13:39:09.005Z</time></trkpt><trkpt lat="44.82895175504896" lon="4.798632243198599"><ele>228.0</ele><time>2026-04-19T13:39:13.006Z</time></trkpt><trkpt lat="44.828998371856116" lon="4.7985382962918"><ele>228.0</ele><time>2026-04-19T13:39:18.006Z</time></trkpt><trkpt lat="44.82904426195286" lon="4.798462682585085"><ele>226.57142857142856</ele><time>2026-04-19T13:39:22.006Z</time></trkpt><trkpt lat="44.82908365961165" lon="4.79838744925424"><ele>225.1428571428571</ele><time>2026-04-19T13:39:26.006Z</time></trkpt><trkpt lat="44.82912824225152" lon="4.798324319336641"><ele>223.71428571428572</ele><time>2026-04-19T13:39:30.006Z</time></trkpt><trkpt lat="44.829183189821386" lon="4.7982678813101485"><ele>222.28571428571428</ele><time>2026-04-19T13:39:34.006Z</time></trkpt><trkpt lat="44.82923167977474" lon="4.7982039705969886"><ele>220.85714285714286</ele><time>2026-04-19T13:39:38.006Z</time></trkpt><trkpt lat="44.829286510561275" lon="4.798136308402897"><ele>219.42857142857144</ele><time>2026-04-19T13:39:42.006Z</time></trkpt><trkpt lat="44.829321887046326" lon="4.798061684027196"><ele>218.0</ele><time>2026-04-19T13:39:46.006Z</time></trkpt><trkpt lat="44.82936502951436" lon="4.797984313371329"><ele>219.57142857142858</ele><time>2026-04-19T13:39:50.006Z</time></trkpt><trkpt lat="44.829403117907475" lon="4.7979091934218925"><ele>221.14285714285717</ele><time>2026-04-19T13:39:54.006Z</time></trkpt><trkpt lat="44.82944848411779" lon="4.797844222317526"><ele>222.71428571428572</ele><time>2026-04-19T13:39:58.006Z</time></trkpt><trkpt lat="44.8294993866817" lon="4.797788790295339"><ele>224.28571428571428</ele><time>2026-04-19T13:40:02.006Z</time></trkpt><trkpt lat="44.82955367749871" lon="4.797740145686309"><ele>225.85714285714286</ele><time>2026-04-19T13:40:06.006Z</time></trkpt><trkpt lat="44.82961120532894" lon="4.797701198504436"><ele>227.42857142857142</ele><time>2026-04-19T13:40:10.006Z</time></trkpt><trkpt lat="44.82967121398007" lon="4.797663723022155"><ele>229.0</ele><time>2026-04-19T13:40:14.006Z</time></trkpt><trkpt lat="44.82973446881969" lon="4.797631876792326"><ele>229.0</ele><time>2026-04-19T13:40:18.006Z</time></trkpt><trkpt lat="44.82980091337084" lon="4.797612458985014"><ele>229.0</ele><time>2026-04-19T13:40:22.006Z</time></trkpt><trkpt lat="44.829863975110335" lon="4.797594565869962"><ele>229.0</ele><time>2026-04-19T13:40:26.006Z</time></trkpt><trkpt lat="44.829943968100395" lon="4.797570879643994"><ele>229.0</ele><time>2026-04-19T13:40:31.006Z</time></trkpt><trkpt lat="44.83002105622035" lon="4.797549580182556"><ele>229.0</ele><time>2026-04-19T13:40:36.006Z</time></trkpt><trkpt lat="44.830083655376235" lon="4.797536426196778"><ele>229.0</ele><time>2026-04-19T13:40:40.006Z</time></trkpt><trkpt lat="44.830146523577255" lon="4.797525343758463"><ele>229.0</ele><time>2026-04-19T13:40:44.006Z</time></trkpt><trkpt lat="44.8302210388666" lon="4.7975205878455975"><ele>231.71428571428572</ele><time>2026-04-19T13:40:49.006Z</time></trkpt><trkpt lat="44.83029388401819" lon="4.797532741284788"><ele>234.42857142857144</ele><time>2026-04-19T13:40:54.006Z</time></trkpt><trkpt lat="44.830365742829144" lon="4.797497597109771"><ele>237.14285714285717</ele><time>2026-04-19T13:40:59.006Z</time></trkpt><trkpt lat="44.83042663912346" lon="4.797460253380466"><ele>239.85714285714286</ele><time>2026-04-19T13:41:03.006Z</time></trkpt><trkpt lat="44.83046980261282" lon="4.797387601024821"><ele>242.5714285714286</ele><time>2026-04-19T13:41:08.006Z</time></trkpt><trkpt lat="44.83051011558695" lon="4.797311664814693"><ele>245.2857142857143</ele><time>2026-04-19T13:41:12.006Z</time></trkpt><trkpt lat="44.830549271735364" lon="4.797239937124985"><ele>248.0</ele><time>2026-04-19T13:41:16.006Z</time></trkpt><trkpt lat="44.830597485792154" lon="4.7971776025133215"><ele>248.0</ele><time>2026-04-19T13:41:20.006Z</time></trkpt><trkpt lat="44.83064150803818" lon="4.797102885144435"><ele>248.00000000000003</ele><time>2026-04-19T13:41:24.006Z</time></trkpt><trkpt lat="44.83069352122244" lon="4.797038822652854"><ele>248.0</ele><time>2026-04-19T13:41:28.006Z</time></trkpt><trkpt lat="44.830749758618424" lon="4.7969770647523875"><ele>248.0</ele><time>2026-04-19T13:41:32.006Z</time></trkpt><trkpt lat="44.830807396840505" lon="4.7969324872056225"><ele>248.00000000000003</ele><time>2026-04-19T13:41:36.006Z</time></trkpt><trkpt lat="44.83086732492814" lon="4.796903416025862"><ele>248.0</ele><time>2026-04-19T13:41:40.006Z</time></trkpt><trkpt lat="44.83093345859356" lon="4.796898344468396"><ele>248.0</ele><time>2026-04-19T13:41:44.006Z</time></trkpt><trkpt lat="44.83099844450506" lon="4.796914654072182"><ele>250.42857142857144</ele><time>2026-04-19T13:41:48.006Z</time></trkpt><trkpt lat="44.831060832943564" lon="4.796926900548124"><ele>252.8571428571429</ele><time>2026-04-19T13:41:52.006Z</time></trkpt><trkpt lat="44.83112399520073" lon="4.796933751610629"><ele>255.28571428571428</ele><time>2026-04-19T13:41:56.006Z</time></trkpt><trkpt lat="44.83119182766016" lon="4.796929905363297"><ele>257.7142857142857</ele><time>2026-04-19T13:42:00.006Z</time></trkpt><trkpt lat="44.83125477204814" lon="4.796927395935186"><ele>260.1428571428571</ele><time>2026-04-19T13:42:04.006Z</time></trkpt><trkpt lat="44.83136909529677" lon="4.796886591204816"><ele>262.57142857142856</ele><time>2026-04-19T13:43:35.007Z</time></trkpt><trkpt lat="44.83143443295833" lon="4.796869979660544"><ele>265.0</ele><time>2026-04-19T13:43:40.007Z</time></trkpt><trkpt lat="44.831503359241076" lon="4.79684569074834"><ele>264.85714285714283</ele><time>2026-04-19T13:43:45.007Z</time></trkpt><trkpt lat="44.831570833023044" lon="4.796824645744869"><ele>264.7142857142857</ele><time>2026-04-19T13:43:50.007Z</time></trkpt><trkpt lat="44.83164333353199" lon="4.796791808435625"><ele>264.57142857142856</ele><time>2026-04-19T13:43:55.007Z</time></trkpt><trkpt lat="44.83172022973319" lon="4.796769358415037"><ele>264.42857142857144</ele><time>2026-04-19T13:44:00.007Z</time></trkpt><trkpt lat="44.831790607710005" lon="4.79676135042131"><ele>264.2857142857143</ele><time>2026-04-19T13:44:04.007Z</time></trkpt><trkpt lat="44.83186779032981" lon="4.7967605471021155"><ele>264.1428571428571</ele><time>2026-04-19T13:44:08.007Z</time></trkpt><trkpt lat="44.83193292927215" lon="4.796749676212324"><ele>264.0</ele><time>2026-04-19T13:44:12.007Z</time></trkpt><trkpt lat="44.83200971052445" lon="4.7967380124271655"><ele>264.0</ele><time>2026-04-19T13:44:16.007Z</time></trkpt><trkpt lat="44.83207517604926" lon="4.796704309575548"><ele>264.0</ele><time>2026-04-19T13:44:20.007Z</time></trkpt><trkpt lat="44.83213515514349" lon="4.796671729598482"><ele>264.0</ele><time>2026-04-19T13:44:24.007Z</time></trkpt><trkpt lat="44.832196342750905" lon="4.796638101690835"><ele>264.0</ele><time>2026-04-19T13:44:28.007Z</time></trkpt><trkpt lat="44.83225785337353" lon="4.7966165484282985"><ele>264.0</ele><time>2026-04-19T13:44:32.007Z</time></trkpt><trkpt lat="44.83233623870171" lon="4.796599667262888"><ele>264.0</ele><time>2026-04-19T13:44:37.007Z</time></trkpt><trkpt lat="44.832406826370914" lon="4.796576184614035"><ele>264.0</ele><time>2026-04-19T13:44:41.007Z</time></trkpt><trkpt lat="44.83244710881485" lon="4.796506751302961"><ele>264.0</ele><time>2026-04-19T13:44:45.007Z</time></trkpt><trkpt lat="44.832442602854016" lon="4.796411938795839"><ele>264.0</ele><time>2026-04-19T13:44:50.007Z</time></trkpt><trkpt lat="44.83239563927487" lon="4.796324356444488"><ele>264.0</ele><time>2026-04-19T13:44:55.005Z</time></trkpt><trkpt lat="44.832337886667304" lon="4.796272083901721"><ele>264.0</ele><time>2026-04-19T13:44:59.005Z</time></trkpt><trkpt lat="44.832279073753305" lon="4.796206349665783"><ele>264.0</ele><time>2026-04-19T13:45:04.006Z</time></trkpt><trkpt lat="44.83223089591088" lon="4.796133007365411"><ele>264.0</ele><time>2026-04-19T13:45:08.006Z</time></trkpt><trkpt lat="44.83219250616813" lon="4.796061640918452"><ele>264.0</ele><time>2026-04-19T13:45:12.006Z</time></trkpt><trkpt lat="44.83215092114665" lon="4.795967980656887"><ele>265.42857142857144</ele><time>2026-04-19T13:45:17.006Z</time></trkpt><trkpt lat="44.832085855123985" lon="4.795905739654079"><ele>266.8571428571429</ele><time>2026-04-19T13:45:22.006Z</time></trkpt><trkpt lat="44.83202759852124" lon="4.795865742041881"><ele>268.28571428571433</ele><time>2026-04-19T13:45:26.006Z</time></trkpt><trkpt lat="44.83196514936566" lon="4.79583785240057"><ele>269.7142857142857</ele><time>2026-04-19T13:45:30.006Z</time></trkpt><trkpt lat="44.83190512390304" lon="4.795778304744372"><ele>271.14285714285717</ele><time>2026-04-19T13:45:35.006Z</time></trkpt><trkpt lat="44.83184134879064" lon="4.795711148204983"><ele>272.5714285714286</ele><time>2026-04-19T13:45:40.006Z</time></trkpt><trkpt lat="44.83180418900562" lon="4.795636516739088"><ele>274.0</ele><time>2026-04-19T13:45:45.006Z</time></trkpt><trkpt lat="44.83184719203673" lon="4.795707070556862"><ele>274.00000000000006</ele><time>2026-04-19T13:45:54.006Z</time></trkpt><trkpt lat="44.83190412165339" lon="4.795763112382511"><ele>274.0</ele><time>2026-04-19T13:45:57.006Z</time></trkpt><trkpt lat="44.83196113480046" lon="4.795810938261999"><ele>274.0</ele><time>2026-04-19T13:46:02.006Z</time></trkpt><trkpt lat="44.8319072389019" lon="4.795749526876087"><ele>274.0</ele><time>2026-04-19T13:46:30.007Z</time></trkpt><trkpt lat="44.83184627091091" lon="4.795699522572725"><ele>274.0</ele><time>2026-04-19T13:46:34.007Z</time></trkpt><trkpt lat="44.83179830034223" lon="4.7956280523350445"><ele>274.00000000000006</ele><time>2026-04-19T13:46:38.007Z</time></trkpt><trkpt lat="44.83175638217695" lon="4.7955485283355435"><ele>274.0</ele><time>2026-04-19T13:46:42.007Z</time></trkpt><trkpt lat="44.831747174515236" lon="4.795450793545982"><ele>274.00000000000006</ele><time>2026-04-19T13:46:46.007Z</time></trkpt><trkpt lat="44.831760532537416" lon="4.795345643987556"><ele>274.0</ele><time>2026-04-19T13:46:50.007Z</time></trkpt><trkpt lat="44.83179131815798" lon="4.795261215894374"><ele>274.0</ele><time>2026-04-19T13:46:54.007Z</time></trkpt><trkpt lat="44.831839690026364" lon="4.795191186774218"><ele>274.0</ele><time>2026-04-19T13:46:58.007Z</time></trkpt><trkpt lat="44.8319050460149" lon="4.795136338783436"><ele>274.0</ele><time>2026-04-19T13:47:03.006Z</time></trkpt><trkpt lat="44.83197016416646" lon="4.795112060330137"><ele>274.00000000000006</ele><time>2026-04-19T13:47:08.006Z</time></trkpt><trkpt lat="44.83204185260074" lon="4.795082625249803"><ele>274.0</ele><time>2026-04-19T13:47:13.006Z</time></trkpt><trkpt lat="44.832116215648206" lon="4.795049913781626"><ele>273.66666666666663</ele><time>2026-04-19T13:47:19.005Z</time></trkpt><trkpt lat="44.832184267714815" lon="4.79501599697076"><ele>273.3333333333333</ele><time>2026-04-19T13:47:24.005Z</time></trkpt><trkpt lat="44.83225857559977" lon="4.7949935389075975"><ele>273.0</ele><time>2026-04-19T13:47:29.005Z</time></trkpt><trkpt lat="44.832340003706584" lon="4.794981867143569"><ele>272.6666666666667</ele><time>2026-04-19T13:47:33.005Z</time></trkpt><trkpt lat="44.83241417216295" lon="4.794997139333572"><ele>272.33333333333337</ele><time>2026-04-19T13:47:38.005Z</time></trkpt><trkpt lat="44.83247963036323" lon="4.795010918695926"><ele>272.0</ele><time>2026-04-19T13:47:42.005Z</time></trkpt><trkpt lat="44.83257715030312" lon="4.79499375634911"><ele>272.85714285714283</ele><time>2026-04-19T13:48:20.006Z</time></trkpt><trkpt lat="44.83265377301552" lon="4.794995339299963"><ele>273.7142857142857</ele><time>2026-04-19T13:48:26.006Z</time></trkpt><trkpt lat="44.832726631701206" lon="4.795007883274675"><ele>274.57142857142856</ele><time>2026-04-19T13:48:31.006Z</time></trkpt><trkpt lat="44.832802928353594" lon="4.795012487519505"><ele>275.42857142857144</ele><time>2026-04-19T13:48:36.006Z</time></trkpt><trkpt lat="44.83286988874537" lon="4.795027954281727"><ele>276.2857142857143</ele><time>2026-04-19T13:48:40.006Z</time></trkpt><trkpt lat="44.832936999979296" lon="4.795041291675646"><ele>277.1428571428571</ele><time>2026-04-19T13:48:44.006Z</time></trkpt><trkpt lat="44.833005080629334" lon="4.795065528026474"><ele>278.0</ele><time>2026-04-19T13:48:48.006Z</time></trkpt><trkpt lat="44.8330624763029" lon="4.79512468578746"><ele>279.85714285714283</ele><time>2026-04-19T13:48:52.006Z</time></trkpt><trkpt lat="44.833042972688716" lon="4.795218638554163"><ele>281.7142857142857</ele><time>2026-04-19T13:48:56.006Z</time></trkpt><trkpt lat="44.832979126368016" lon="4.795223913772743"><ele>283.57142857142856</ele><time>2026-04-19T13:49:00.006Z</time></trkpt><trkpt lat="44.832903269755626" lon="4.795230416913879"><ele>285.42857142857144</ele><time>2026-04-19T13:49:05.006Z</time></trkpt><trkpt lat="44.832838298210895" lon="4.7952639282741725"><ele>287.2857142857143</ele><time>2026-04-19T13:49:09.005Z</time></trkpt><trkpt lat="44.83277837430787" lon="4.795303227653123"><ele>289.1428571428571</ele><time>2026-04-19T13:49:13.006Z</time></trkpt><trkpt lat="44.832730416796565" lon="4.795376016215197"><ele>291.0</ele><time>2026-04-19T13:49:17.005Z</time></trkpt><trkpt lat="44.83270584868088" lon="4.795460396027857"><ele>291.0</ele><time>2026-04-19T13:49:21.005Z</time></trkpt><trkpt lat="44.83271291053327" lon="4.795556964739581"><ele>291.0</ele><time>2026-04-19T13:49:25.005Z</time></trkpt><trkpt lat="44.83277072120429" lon="4.795600381455371"><ele>291.0</ele><time>2026-04-19T13:50:04.006Z</time></trkpt><trkpt lat="44.832834708924295" lon="4.795658775091048"><ele>291.0</ele><time>2026-04-19T13:50:10.006Z</time></trkpt><trkpt lat="44.83289771018295" lon="4.7957050003386925"><ele>291.0</ele><time>2026-04-19T13:50:15.006Z</time></trkpt><trkpt lat="44.832964564334986" lon="4.795740897094449"><ele>291.0</ele><time>2026-04-19T13:50:20.006Z</time></trkpt><trkpt lat="44.833033645193346" lon="4.795789909806698"><ele>291.0</ele><time>2026-04-19T13:50:25.006Z</time></trkpt><trkpt lat="44.83309218803843" lon="4.7958292937007725"><ele>291.0</ele><time>2026-04-19T13:50:29.006Z</time></trkpt><trkpt lat="44.83315468204976" lon="4.7958697095353"><ele>291.0</ele><time>2026-04-19T13:50:33.006Z</time></trkpt><trkpt lat="44.83321447364537" lon="4.79591007532673"><ele>291.0</ele><time>2026-04-19T13:50:37.006Z</time></trkpt><trkpt lat="44.83327841212803" lon="4.7959573446071735"><ele>291.0</ele><time>2026-04-19T13:50:42.006Z</time></trkpt><trkpt lat="44.83333131151368" lon="4.796029275809501"><ele>291.0</ele><time>2026-04-19T13:52:10.005Z</time></trkpt><trkpt lat="44.833391823640625" lon="4.79609846679467"><ele>291.0</ele><time>2026-04-19T13:52:16.005Z</time></trkpt><trkpt lat="44.833449391891534" lon="4.796162797042776"><ele>291.0</ele><time>2026-04-19T13:52:21.005Z</time></trkpt><trkpt lat="44.83351123713739" lon="4.796219492094491"><ele>294.42857142857144</ele><time>2026-04-19T13:52:26.005Z</time></trkpt><trkpt lat="44.83357680032788" lon="4.7962733476140125"><ele>297.85714285714283</ele><time>2026-04-19T13:52:31.005Z</time></trkpt><trkpt lat="44.83363360921874" lon="4.796322577880893"><ele>301.2857142857143</ele><time>2026-04-19T13:52:35.005Z</time></trkpt><trkpt lat="44.83370183736616" lon="4.796386389525962"><ele>304.7142857142857</ele><time>2026-04-19T13:52:40.005Z</time></trkpt><trkpt lat="44.83375062167237" lon="4.796444204171398"><ele>308.1428571428571</ele><time>2026-04-19T13:52:44.005Z</time></trkpt><trkpt lat="44.8338046320893" lon="4.796510144742105"><ele>311.57142857142856</ele><time>2026-04-19T13:52:48.005Z</time></trkpt><trkpt lat="44.833855580970926" lon="4.7965723467180075"><ele>315.0</ele><time>2026-04-19T13:52:52.006Z</time></trkpt><trkpt lat="44.83390813493414" lon="4.796643915533256"><ele>315.0</ele><time>2026-04-19T13:52:56.006Z</time></trkpt><trkpt lat="44.83395564816395" lon="4.796706409901328"><ele>315.0</ele><time>2026-04-19T13:53:00.006Z</time></trkpt><trkpt lat="44.83401495927046" lon="4.796778772698312"><ele>315.0</ele><time>2026-04-19T13:53:04.006Z</time></trkpt><trkpt lat="44.83406388434698" lon="4.796840434883681"><ele>315.0</ele><time>2026-04-19T13:53:08.006Z</time></trkpt><trkpt lat="44.834110880087195" lon="4.796908552480667"><ele>315.0</ele><time>2026-04-19T13:53:12.006Z</time></trkpt><trkpt lat="44.83416375713007" lon="4.79699492778347"><ele>315.0</ele><time>2026-04-19T13:53:17.006Z</time></trkpt><trkpt lat="44.834197723968465" lon="4.7970851567233606"><ele>315.0</ele><time>2026-04-19T13:53:22.005Z</time></trkpt><trkpt lat="44.83418284792701" lon="4.7971915359407715"><ele>316.0</ele><time>2026-04-19T13:53:36.005Z</time></trkpt><trkpt lat="44.83414722992701" lon="4.797276109918705"><ele>317.0</ele><time>2026-04-19T13:53:42.005Z</time></trkpt><trkpt lat="44.8341068584225" lon="4.797357037642192"><ele>318.0</ele><time>2026-04-19T13:53:48.005Z</time></trkpt><trkpt lat="44.83406110702665" lon="4.797436870449774"><ele>319.0</ele><time>2026-04-19T13:53:54.005Z</time></trkpt><trkpt lat="44.834014093085756" lon="4.797511381723325"><ele>320.0</ele><time>2026-04-19T13:54:00.005Z</time></trkpt><trkpt lat="44.83397317821307" lon="4.797584790576332"><ele>321.0</ele><time>2026-04-19T13:54:06.005Z</time></trkpt><trkpt lat="44.83392781755522" lon="4.797663464607701"><ele>322.0</ele><time>2026-04-19T13:54:12.005Z</time></trkpt><trkpt lat="44.83388069963669" lon="4.797740882763609"><ele>323.14285714285717</ele><time>2026-04-19T13:54:18.005Z</time></trkpt><trkpt lat="44.83384072138023" lon="4.797810036348292"><ele>324.2857142857143</ele><time>2026-04-19T13:54:23.005Z</time></trkpt><trkpt lat="44.833801719856424" lon="4.797881979551576"><ele>325.42857142857144</ele><time>2026-04-19T13:54:28.006Z</time></trkpt><trkpt lat="44.833765210812466" lon="4.797963642828268"><ele>326.57142857142856</ele><time>2026-04-19T13:54:34.006Z</time></trkpt><trkpt lat="44.83372590479549" lon="4.798045869638883"><ele>327.7142857142857</ele><time>2026-04-19T13:54:40.006Z</time></trkpt><trkpt lat="44.83368617723572" lon="4.7981262381234675"><ele>328.8571428571429</ele><time>2026-04-19T13:54:46.006Z</time></trkpt><trkpt lat="44.833654158177964" lon="4.798209291281402"><ele>330.0</ele><time>2026-04-19T13:54:52.005Z</time></trkpt><trkpt lat="44.83362602688061" lon="4.798297784499067"><ele>330.00000000000006</ele><time>2026-04-19T13:54:58.005Z</time></trkpt><trkpt lat="44.83360609664445" lon="4.798398673921162"><ele>330.0</ele><time>2026-04-19T13:55:05.005Z</time></trkpt><trkpt lat="44.8335976115005" lon="4.798495689504103"><ele>330.0</ele><time>2026-04-19T13:55:11.005Z</time></trkpt><trkpt lat="44.833602458178596" lon="4.7985899961407394"><ele>330.0</ele><time>2026-04-19T13:55:17.005Z</time></trkpt><trkpt lat="44.83361721366087" lon="4.7986838836492485"><ele>330.0</ele><time>2026-04-19T13:55:23.005Z</time></trkpt><trkpt lat="44.833659641242775" lon="4.7987591749652925"><ele>330.00000000000006</ele><time>2026-04-19T13:55:36.004Z</time></trkpt><trkpt lat="44.83371552573903" lon="4.7988065856741144"><ele>330.0</ele><time>2026-04-19T13:55:44.004Z</time></trkpt><trkpt lat="44.83364765302498" lon="4.798768768450532"><ele>330.0</ele><time>2026-04-19T13:57:47.003Z</time></trkpt><trkpt lat="44.83362411533814" lon="4.798663375838991"><ele>330.0</ele><time>2026-04-19T13:57:50.003Z</time></trkpt><trkpt lat="44.83361271590032" lon="4.798557432498914"><ele>330.0</ele><time>2026-04-19T13:57:52.003Z</time></trkpt><trkpt lat="44.833616575269886" lon="4.798440749821827"><ele>330.0</ele><time>2026-04-19T13:57:54.003Z</time></trkpt><trkpt lat="44.833632514274306" lon="4.798324715483499"><ele>330.0</ele><time>2026-04-19T13:57:56.003Z</time></trkpt><trkpt lat="44.83366142177212" lon="4.798213666615276"><ele>330.0</ele><time>2026-04-19T13:57:58.003Z</time></trkpt><trkpt lat="44.8337083835422" lon="4.798085426967762"><ele>330.0</ele><time>2026-04-19T13:58:00.003Z</time></trkpt><trkpt lat="44.833784421894336" lon="4.797930601773874"><ele>330.0</ele><time>2026-04-19T13:58:02.003Z</time></trkpt><trkpt lat="44.83383051052188" lon="4.797853649529794"><ele>330.0</ele><time>2026-04-19T13:58:03.003Z</time></trkpt><trkpt lat="44.83386701082645" lon="4.797757237484111"><ele>330.0</ele><time>2026-04-19T13:58:04.003Z</time></trkpt><trkpt lat="44.833912507959006" lon="4.797687014467106"><ele>330.0</ele><time>2026-04-19T13:58:05.003Z</time></trkpt><trkpt lat="44.833963434604705" lon="4.797615907584438"><ele>330.0</ele><time>2026-04-19T13:58:06.003Z</time></trkpt><trkpt lat="44.834008235069476" lon="4.797538749847326"><ele>328.6666666666667</ele><time>2026-04-19T13:58:07.003Z</time></trkpt><trkpt lat="44.834051359281446" lon="4.797468772762466"><ele>327.3333333333333</ele><time>2026-04-19T13:58:08.003Z</time></trkpt><trkpt lat="44.83409335493757" lon="4.797393863951747"><ele>326.0</ele><time>2026-04-19T13:58:09.003Z</time></trkpt><trkpt lat="44.8341561401282" lon="4.797271812080733"><ele>324.66666666666663</ele><time>2026-04-19T13:58:11.003Z</time></trkpt><trkpt lat="44.834203665056684" lon="4.797137080462532"><ele>323.3333333333333</ele><time>2026-04-19T13:58:13.003Z</time></trkpt><trkpt lat="44.834191764579266" lon="4.797020561872442"><ele>322.0</ele><time>2026-04-19T13:58:15.003Z</time></trkpt><trkpt lat="44.83412129931904" lon="4.796896839728096"><ele>320.6</ele><time>2026-04-19T13:58:17.003Z</time></trkpt><trkpt lat="44.834045884342984" lon="4.796813526479187"><ele>319.20000000000005</ele><time>2026-04-19T13:58:19.003Z</time></trkpt><trkpt lat="44.83397479430828" lon="4.79670951296135"><ele>317.8</ele><time>2026-04-19T13:58:21.003Z</time></trkpt><trkpt lat="44.83390383214142" lon="4.796595161461098"><ele>316.4</ele><time>2026-04-19T13:58:23.003Z</time></trkpt><trkpt lat="44.83384957151543" lon="4.796547840503063"><ele>315.0</ele><time>2026-04-19T13:58:24.003Z</time></trkpt><trkpt lat="44.83376252340789" lon="4.796436034933423"><ele>315.0</ele><time>2026-04-19T13:58:26.003Z</time></trkpt><trkpt lat="44.83368267883147" lon="4.796353145959746"><ele>315.0</ele><time>2026-04-19T13:58:28.003Z</time></trkpt><trkpt lat="44.833605622669026" lon="4.796292842779764"><ele>315.0</ele><time>2026-04-19T13:58:30.003Z</time></trkpt><trkpt lat="44.83354876923025" lon="4.796243807815989"><ele>315.0</ele><time>2026-04-19T13:58:31.003Z</time></trkpt><trkpt lat="44.83349066512666" lon="4.796197885265683"><ele>315.0</ele><time>2026-04-19T13:58:32.003Z</time></trkpt><trkpt lat="44.83342313429195" lon="4.796127836138308"><ele>315.0</ele><time>2026-04-19T13:58:34.003Z</time></trkpt><trkpt lat="44.83334239190215" lon="4.796029292585196"><ele>311.0</ele><time>2026-04-19T13:58:36.003Z</time></trkpt><trkpt lat="44.83326241857087" lon="4.795934967726041"><ele>307.0</ele><time>2026-04-19T13:58:38.003Z</time></trkpt><trkpt lat="44.8332057003516" lon="4.795895367340777"><ele>303.0</ele><time>2026-04-19T13:58:39.003Z</time></trkpt><trkpt lat="44.83313725811755" lon="4.79585893872977"><ele>299.0</ele><time>2026-04-19T13:58:40.003Z</time></trkpt><trkpt lat="44.83306190293867" lon="4.795806766826454"><ele>295.0</ele><time>2026-04-19T13:58:41.003Z</time></trkpt><trkpt lat="44.832995385369685" lon="4.795766735828807"><ele>291.0</ele><time>2026-04-19T13:58:42.003Z</time></trkpt><trkpt lat="44.83293505410349" lon="4.7957287383961456"><ele>291.0</ele><time>2026-04-19T13:58:43.003Z</time></trkpt><trkpt lat="44.8328752429687" lon="4.795698075166406"><ele>291.0</ele><time>2026-04-19T13:58:44.003Z</time></trkpt><trkpt lat="44.832779842344976" lon="4.795628013823762"><ele>291.0</ele><time>2026-04-19T13:58:46.003Z</time></trkpt><trkpt lat="44.832718873250755" lon="4.795518508528396"><ele>291.0</ele><time>2026-04-19T13:58:48.003Z</time></trkpt><trkpt lat="44.83273063173524" lon="4.7954271408725875"><ele>291.0</ele><time>2026-04-19T13:58:49.003Z</time></trkpt><trkpt lat="44.832768618012764" lon="4.795352186672503"><ele>291.0</ele><time>2026-04-19T13:58:50.003Z</time></trkpt><trkpt lat="44.83282419780891" lon="4.795288525036879"><ele>291.0</ele><time>2026-04-19T13:58:51.003Z</time></trkpt><trkpt lat="44.83289474524218" lon="4.795257647213682"><ele>291.0</ele><time>2026-04-19T13:58:52.003Z</time></trkpt><trkpt lat="44.832971135013835" lon="4.795256200223986"><ele>291.0</ele><time>2026-04-19T13:58:53.003Z</time></trkpt><trkpt lat="44.833034450091574" lon="4.795265008757203"><ele>291.0</ele><time>2026-04-19T13:58:54.003Z</time></trkpt><trkpt lat="44.83310328929457" lon="4.795238303833516"><ele>291.0</ele><time>2026-04-19T13:58:56.003Z</time></trkpt><trkpt lat="44.833084117299194" lon="4.795128458424746"><ele>291.0</ele><time>2026-04-19T13:58:58.003Z</time></trkpt><trkpt lat="44.833004645240365" lon="4.795085071081268"><ele>288.40000000000003</ele><time>2026-04-19T13:59:00.003Z</time></trkpt><trkpt lat="44.83287946903965" lon="4.795077093771429"><ele>285.8</ele><time>2026-04-19T13:59:02.003Z</time></trkpt><trkpt lat="44.83275387079579" lon="4.795054449095802"><ele>283.20000000000005</ele><time>2026-04-19T13:59:04.003Z</time></trkpt><trkpt lat="44.8326814599032" lon="4.795045456435417"><ele>280.6</ele><time>2026-04-19T13:59:05.003Z</time></trkpt><trkpt lat="44.83259456502852" lon="4.795039783550654"><ele>278.0</ele><time>2026-04-19T13:59:06.003Z</time></trkpt><trkpt lat="44.832508962572795" lon="4.795019800222858"><ele>277.0</ele><time>2026-04-19T13:59:07.003Z</time></trkpt><trkpt lat="44.832428594421344" lon="4.795005761144537"><ele>276.0</ele><time>2026-04-19T13:59:08.003Z</time></trkpt><trkpt lat="44.832358802550814" lon="4.79499686030612"><ele>275.0</ele><time>2026-04-19T13:59:09.003Z</time></trkpt><trkpt lat="44.832288560100885" lon="4.794996487363467"><ele>274.0</ele><time>2026-04-19T13:59:10.003Z</time></trkpt><trkpt lat="44.83222292623589" lon="4.7950132339025755"><ele>273.0</ele><time>2026-04-19T13:59:11.003Z</time></trkpt><trkpt lat="44.83216094240659" lon="4.795036242154488"><ele>272.0</ele><time>2026-04-19T13:59:12.003Z</time></trkpt><trkpt lat="44.83206553530327" lon="4.79507778882893"><ele>272.0</ele><time>2026-04-19T13:59:14.003Z</time></trkpt><trkpt lat="44.8319681301277" lon="4.795118254247943"><ele>272.0</ele><time>2026-04-19T13:59:16.003Z</time></trkpt><trkpt lat="44.83187135397095" lon="4.795177430057395"><ele>272.0</ele><time>2026-04-19T13:59:18.003Z</time></trkpt><trkpt lat="44.831803006325536" lon="4.795289662062987"><ele>272.0</ele><time>2026-04-19T13:59:20.003Z</time></trkpt><trkpt lat="44.83176928332604" lon="4.795411899755446"><ele>272.0</ele><time>2026-04-19T13:59:22.003Z</time></trkpt><trkpt lat="44.83174844751087" lon="4.7955160697926"><ele>272.33333333333337</ele><time>2026-04-19T13:59:25.003Z</time></trkpt><trkpt lat="44.83178208610643" lon="4.795618711918336"><ele>272.6666666666667</ele><time>2026-04-19T13:59:38.002Z</time></trkpt><trkpt lat="44.831836029491846" lon="4.795681793558928"><ele>273.0</ele><time>2026-04-19T13:59:40.002Z</time></trkpt><trkpt lat="44.83190826424351" lon="4.795761749165829"><ele>273.3333333333333</ele><time>2026-04-19T13:59:42.003Z</time></trkpt><trkpt lat="44.83198539683305" lon="4.795821332381844"><ele>273.66666666666663</ele><time>2026-04-19T13:59:44.002Z</time></trkpt><trkpt lat="44.8320705980718" lon="4.795878574258653"><ele>274.0</ele><time>2026-04-19T13:59:46.002Z</time></trkpt><trkpt lat="44.832148222221285" lon="4.795921592495248"><ele>272.0</ele><time>2026-04-19T13:59:48.002Z</time></trkpt><trkpt lat="44.83221356761348" lon="4.7960518417634095"><ele>270.0</ele><time>2026-04-19T13:59:50.002Z</time></trkpt><trkpt lat="44.83227821343129" lon="4.7961727898662385"><ele>268.0</ele><time>2026-04-19T13:59:52.002Z</time></trkpt><trkpt lat="44.832350387761444" lon="4.796234497889374"><ele>266.0</ele><time>2026-04-19T13:59:54.002Z</time></trkpt><trkpt lat="44.83244220140964" lon="4.796323904255564"><ele>264.0</ele><time>2026-04-19T13:59:56.002Z</time></trkpt><trkpt lat="44.832496391869995" lon="4.796408153112404"><ele>264.0</ele><time>2026-04-19T13:59:58.002Z</time></trkpt><trkpt lat="44.83248448874161" lon="4.7965246138186"><ele>264.0</ele><time>2026-04-19T14:00:00.002Z</time></trkpt><trkpt lat="44.83242371427801" lon="4.796585081731653"><ele>264.0</ele><time>2026-04-19T14:00:02.002Z</time></trkpt><trkpt lat="44.832337200500476" lon="4.79658698734041"><ele>264.0</ele><time>2026-04-19T14:00:04.002Z</time></trkpt><trkpt lat="44.8322316335306" lon="4.796605508029899"><ele>264.0</ele><time>2026-04-19T14:00:06.002Z</time></trkpt><trkpt lat="44.832135332854584" lon="4.796671315430108"><ele>264.0</ele><time>2026-04-19T14:00:08.002Z</time></trkpt><trkpt lat="44.83204177954917" lon="4.796723479570403"><ele>264.0</ele><time>2026-04-19T14:00:10.002Z</time></trkpt><trkpt lat="44.83197953847501" lon="4.796737172791218"><ele>264.0</ele><time>2026-04-19T14:00:11.002Z</time></trkpt><trkpt lat="44.831910352953464" lon="4.796743201680827"><ele>264.0</ele><time>2026-04-19T14:00:12.002Z</time></trkpt><trkpt lat="44.831840040080344" lon="4.796749249488682"><ele>264.0</ele><time>2026-04-19T14:00:13.002Z</time></trkpt><trkpt lat="44.83176672526886" lon="4.796752635122203"><ele>264.0</ele><time>2026-04-19T14:00:14.002Z</time></trkpt><trkpt lat="44.83168403932047" lon="4.796776465872133"><ele>264.2</ele><time>2026-04-19T14:00:15.002Z</time></trkpt><trkpt lat="44.83160758803072" lon="4.796817319239786"><ele>264.4</ele><time>2026-04-19T14:00:16.002Z</time></trkpt><trkpt lat="44.83154130224187" lon="4.796849652196405"><ele>264.6</ele><time>2026-04-19T14:00:17.002Z</time></trkpt><trkpt lat="44.8314515381795" lon="4.796899971098101"><ele>264.8</ele><time>2026-04-19T14:00:19.002Z</time></trkpt><trkpt lat="44.831353960422554" lon="4.796910886121265"><ele>265.0</ele><time>2026-04-19T14:00:21.002Z</time></trkpt><trkpt lat="44.83124564405578" lon="4.796921982986781"><ele>265.0</ele><time>2026-04-19T14:00:23.002Z</time></trkpt><trkpt lat="44.831169025984" lon="4.796917650848665"><ele>265.0</ele><time>2026-04-19T14:00:24.002Z</time></trkpt><trkpt lat="44.83109649799443" lon="4.796882476818336"><ele>265.0</ele><time>2026-04-19T14:00:25.002Z</time></trkpt><trkpt lat="44.83103365293488" lon="4.796859237494449"><ele>265.0</ele><time>2026-04-19T14:00:26.002Z</time></trkpt><trkpt lat="44.830906155190554" lon="4.7968690313301625"><ele>265.0</ele><time>2026-04-19T14:00:28.002Z</time></trkpt><trkpt lat="44.83084085416239" lon="4.796906920094563"><ele>265.0</ele><time>2026-04-19T14:00:29.002Z</time></trkpt><trkpt lat="44.83077872740134" lon="4.79697977791078"><ele>262.16666666666663</ele><time>2026-04-19T14:00:30.002Z</time></trkpt><trkpt lat="44.83073114948299" lon="4.797051306950298"><ele>259.3333333333333</ele><time>2026-04-19T14:00:31.002Z</time></trkpt><trkpt lat="44.830666021859756" lon="4.797138521646402"><ele>256.5</ele><time>2026-04-19T14:00:32.002Z</time></trkpt><trkpt lat="44.8305997287373" lon="4.7972250414961275"><ele>253.66666666666669</ele><time>2026-04-19T14:00:33.002Z</time></trkpt><trkpt lat="44.83053992026588" lon="4.7973180524516685"><ele>250.83333333333334</ele><time>2026-04-19T14:00:34.002Z</time></trkpt><trkpt lat="44.830489761392975" lon="4.797401156833494"><ele>248.0</ele><time>2026-04-19T14:00:35.002Z</time></trkpt><trkpt lat="44.83039777069683" lon="4.79751028787207"><ele>248.0</ele><time>2026-04-19T14:00:37.002Z</time></trkpt><trkpt lat="44.83027435387917" lon="4.7975324693436505"><ele>248.0</ele><time>2026-04-19T14:00:39.002Z</time></trkpt><trkpt lat="44.83019568846398" lon="4.797509966170133"><ele>248.0</ele><time>2026-04-19T14:00:40.002Z</time></trkpt><trkpt lat="44.830112116173" lon="4.797511519241956"><ele>248.0</ele><time>2026-04-19T14:00:41.003Z</time></trkpt><trkpt lat="44.8300216717488" lon="4.797516768194324"><ele>248.0</ele><time>2026-04-19T14:00:42.003Z</time></trkpt><trkpt lat="44.82993047286242" lon="4.797542886223077"><ele>247.16666666666669</ele><time>2026-04-19T14:00:43.003Z</time></trkpt><trkpt lat="44.82983404209773" lon="4.797571696299844"><ele>246.33333333333334</ele><time>2026-04-19T14:00:44.003Z</time></trkpt><trkpt lat="44.8297430289385" lon="4.7975974949345055"><ele>245.5</ele><time>2026-04-19T14:00:45.003Z</time></trkpt><trkpt lat="44.829664905859076" lon="4.797631404108173"><ele>244.66666666666669</ele><time>2026-04-19T14:00:46.003Z</time></trkpt><trkpt lat="44.829593113467475" lon="4.797675676801863"><ele>243.83333333333334</ele><time>2026-04-19T14:00:47.003Z</time></trkpt><trkpt lat="44.829520392596095" lon="4.797738052107571"><ele>243.0</ele><time>2026-04-19T14:00:48.003Z</time></trkpt><trkpt lat="44.82945385864782" lon="4.797812364052428"><ele>243.0</ele><time>2026-04-19T14:00:49.003Z</time></trkpt><trkpt lat="44.82939530311388" lon="4.7979033641132265"><ele>243.0</ele><time>2026-04-19T14:00:50.003Z</time></trkpt><trkpt lat="44.829339720027306" lon="4.798008405646736"><ele>243.0</ele><time>2026-04-19T14:00:51.003Z</time></trkpt><trkpt lat="44.829281859978096" lon="4.798121451051755"><ele>243.0</ele><time>2026-04-19T14:00:52.003Z</time></trkpt><trkpt lat="44.82921456867786" lon="4.798213863210585"><ele>243.0</ele><time>2026-04-19T14:00:53.003Z</time></trkpt><trkpt lat="44.829155971679036" lon="4.798291073451852"><ele>240.85714285714283</ele><time>2026-04-19T14:00:54.003Z</time></trkpt><trkpt lat="44.82909755187674" lon="4.798355806506385"><ele>238.71428571428572</ele><time>2026-04-19T14:00:55.003Z</time></trkpt><trkpt lat="44.82904935537401" lon="4.798422105359647"><ele>236.57142857142856</ele><time>2026-04-19T14:00:56.003Z</time></trkpt><trkpt lat="44.82900896060628" lon="4.798505442563296"><ele>234.42857142857142</ele><time>2026-04-19T14:00:57.003Z</time></trkpt><trkpt lat="44.8289692144688" lon="4.798584509058673"><ele>232.28571428571428</ele><time>2026-04-19T14:00:58.003Z</time></trkpt><trkpt lat="44.828932474973726" lon="4.798673223310282"><ele>230.14285714285714</ele><time>2026-04-19T14:00:59.003Z</time></trkpt><trkpt lat="44.8289071564384" lon="4.7987715188105655"><ele>228.0</ele><time>2026-04-19T14:01:00.003Z</time></trkpt><trkpt lat="44.82888431382961" lon="4.798881413528577"><ele>228.0</ele><time>2026-04-19T14:01:01.003Z</time></trkpt><trkpt lat="44.82886786752706" lon="4.7989838744744615"><ele>228.0</ele><time>2026-04-19T14:01:02.003Z</time></trkpt><trkpt lat="44.82885419251228" lon="4.7990724661270105"><ele>228.0</ele><time>2026-04-19T14:01:03.003Z</time></trkpt><trkpt lat="44.82882562463498" lon="4.799225137970778"><ele>228.0</ele><time>2026-04-19T14:01:05.003Z</time></trkpt><trkpt lat="44.8287583798863" lon="4.799346549802581"><ele>228.0</ele><time>2026-04-19T14:01:07.003Z</time></trkpt><trkpt lat="44.82864083442647" lon="4.799422451015129"><ele>229.66666666666666</ele><time>2026-04-19T14:01:09.003Z</time></trkpt><trkpt lat="44.82856976855958" lon="4.799443875923235"><ele>231.33333333333331</ele><time>2026-04-19T14:01:10.003Z</time></trkpt><trkpt lat="44.828461673119016" lon="4.799458645881895"><ele>233.0</ele><time>2026-04-19T14:01:12.003Z</time></trkpt><trkpt lat="44.82838828114558" lon="4.799443251870962"><ele>234.66666666666666</ele><time>2026-04-19T14:01:13.003Z</time></trkpt><trkpt lat="44.828311452932425" lon="4.79940888699334"><ele>236.33333333333331</ele><time>2026-04-19T14:01:14.003Z</time></trkpt><trkpt lat="44.82824424952991" lon="4.799377812735403"><ele>238.0</ele><time>2026-04-19T14:01:15.003Z</time></trkpt><trkpt lat="44.828170893402934" lon="4.799340490836357"><ele>234.33333333333331</ele><time>2026-04-19T14:01:16.003Z</time></trkpt><trkpt lat="44.82810804442975" lon="4.799306230090795"><ele>230.66666666666666</ele><time>2026-04-19T14:01:17.003Z</time></trkpt><trkpt lat="44.8280395690333" lon="4.799306155481529"><ele>227.0</ele><time>2026-04-19T14:01:18.003Z</time></trkpt><trkpt lat="44.82791615228324" lon="4.799338799681255"><ele>223.33333333333331</ele><time>2026-04-19T14:01:20.003Z</time></trkpt><trkpt lat="44.82785323297521" lon="4.799369028315423"><ele>219.66666666666666</ele><time>2026-04-19T14:01:21.003Z</time></trkpt><trkpt lat="44.827805413080966" lon="4.799441213962808"><ele>216.0</ele><time>2026-04-19T14:01:22.003Z</time></trkpt><trkpt lat="44.82776256619994" lon="4.799516036417626"><ele>216.0</ele><time>2026-04-19T14:01:23.003Z</time></trkpt><trkpt lat="44.82772636563648" lon="4.799608850496822"><ele>216.0</ele><time>2026-04-19T14:01:24.003Z</time></trkpt><trkpt lat="44.827717970404265" lon="4.799722426026795"><ele>216.0</ele><time>2026-04-19T14:01:25.003Z</time></trkpt><trkpt lat="44.82770944077294" lon="4.799831567857068"><ele>216.0</ele><time>2026-04-19T14:01:26.003Z</time></trkpt><trkpt lat="44.827699778840234" lon="4.799935399302014"><ele>216.0</ele><time>2026-04-19T14:01:27.003Z</time></trkpt><trkpt lat="44.82768585238261" lon="4.800023325435541"><ele>216.0</ele><time>2026-04-19T14:01:28.003Z</time></trkpt><trkpt lat="44.827693724792304" lon="4.800161788488267"><ele>213.4</ele><time>2026-04-19T14:01:30.003Z</time></trkpt><trkpt lat="44.827774093825845" lon="4.800260425257785"><ele>210.8</ele><time>2026-04-19T14:01:32.003Z</time></trkpt><trkpt lat="44.827896931244375" lon="4.800281991527032"><ele>208.20000000000002</ele><time>2026-04-19T14:01:34.003Z</time></trkpt><trkpt lat="44.82800746580313" lon="4.800279818630886"><ele>205.60000000000002</ele><time>2026-04-19T14:01:36.003Z</time></trkpt><trkpt lat="44.828085541682775" lon="4.800346209044779"><ele>203.0</ele><time>2026-04-19T14:01:38.003Z</time></trkpt><trkpt lat="44.82812449477019" lon="4.800492138041621"><ele>203.00000000000003</ele><time>2026-04-19T14:01:40.003Z</time></trkpt><trkpt lat="44.82813960001024" lon="4.800603890544652"><ele>203.0</ele><time>2026-04-19T14:01:41.003Z</time></trkpt><trkpt lat="44.828156829448474" lon="4.800698574632792"><ele>203.0</ele><time>2026-04-19T14:01:42.003Z</time></trkpt><trkpt lat="44.828169581529615" lon="4.800800597697532"><ele>203.0</ele><time>2026-04-19T14:01:43.002Z</time></trkpt><trkpt lat="44.82816276550945" lon="4.800900239187364"><ele>203.00000000000003</ele><time>2026-04-19T14:01:44.002Z</time></trkpt><trkpt lat="44.828156124975415" lon="4.801017727124168"><ele>203.0</ele><time>2026-04-19T14:01:45.002Z</time></trkpt><trkpt lat="44.82814118552777" lon="4.801125995790296"><ele>201.2</ele><time>2026-04-19T14:01:46.002Z</time></trkpt><trkpt lat="44.82812390476577" lon="4.801221644265225"><ele>199.4</ele><time>2026-04-19T14:01:47.001Z</time></trkpt><trkpt lat="44.82810628141807" lon="4.8013079085598"><ele>197.6</ele><time>2026-04-19T14:01:48.001Z</time></trkpt><trkpt lat="44.82808992843325" lon="4.801458726831407"><ele>195.79999999999998</ele><time>2026-04-19T14:01:50.002Z</time></trkpt><trkpt lat="44.828123471619044" lon="4.801586080359279"><ele>194.0</ele><time>2026-04-19T14:01:52.001Z</time></trkpt><trkpt lat="44.82816596878105" lon="4.8017330607171695"><ele>193.50000000000003</ele><time>2026-04-19T14:01:54.002Z</time></trkpt><trkpt lat="44.82822171340064" lon="4.8018961939276785"><ele>193.0</ele><time>2026-04-19T14:01:56.002Z</time></trkpt><trkpt lat="44.82826000864398" lon="4.80196765331094"><ele>192.5</ele><time>2026-04-19T14:01:57.002Z</time></trkpt><trkpt lat="44.82831385040929" lon="4.802017156452442"><ele>192.0</ele><time>2026-04-19T14:01:58.002Z</time></trkpt><trkpt lat="44.82836700644002" lon="4.802067446562233"><ele>191.5</ele><time>2026-04-19T14:01:59.002Z</time></trkpt><trkpt lat="44.828440316214696" lon="4.802109652638373"><ele>191.0</ele><time>2026-04-19T14:02:00.002Z</time></trkpt><trkpt lat="44.82850408862058" lon="4.802154586776475"><ele>191.0</ele><time>2026-04-19T14:02:01.002Z</time></trkpt><trkpt lat="44.82857245831802" lon="4.802191930055557"><ele>191.0</ele><time>2026-04-19T14:02:02.002Z</time></trkpt><trkpt lat="44.82864237842326" lon="4.802248317127425"><ele>191.0</ele><time>2026-04-19T14:02:03.002Z</time></trkpt><trkpt lat="44.82870408748562" lon="4.802308673286639"><ele>191.0</ele><time>2026-04-19T14:02:04.002Z</time></trkpt><trkpt lat="44.82877100590478" lon="4.8023804086125805"><ele>191.0</ele><time>2026-04-19T14:02:05.002Z</time></trkpt><trkpt lat="44.82884132686377" lon="4.802449422131942"><ele>191.0</ele><time>2026-04-19T14:02:06.002Z</time></trkpt><trkpt lat="44.828910745482865" lon="4.802514565027863"><ele>191.0</ele><time>2026-04-19T14:02:07.002Z</time></trkpt><trkpt lat="44.82897995884179" lon="4.80258070534435"><ele>191.0</ele><time>2026-04-19T14:02:08.002Z</time></trkpt><trkpt lat="44.82904302006778" lon="4.802641584494422"><ele>191.0</ele><time>2026-04-19T14:02:09.002Z</time></trkpt><trkpt lat="44.829095813621244" lon="4.802699001170238"><ele>191.0</ele><time>2026-04-19T14:02:10.002Z</time></trkpt><trkpt lat="44.829154817485616" lon="4.802757004461068"><ele>191.0</ele><time>2026-04-19T14:02:11.002Z</time></trkpt><trkpt lat="44.82921792926235" lon="4.8028062889736045"><ele>191.0</ele><time>2026-04-19T14:02:12.002Z</time></trkpt><trkpt lat="44.8292876097486" lon="4.80283976482247"><ele>191.0</ele><time>2026-04-19T14:02:13.002Z</time></trkpt><trkpt lat="44.82936184323854" lon="4.802871215977608"><ele>188.0</ele><time>2026-04-19T14:02:14.002Z</time></trkpt><trkpt lat="44.82944235096311" lon="4.80290142452207"><ele>185.0</ele><time>2026-04-19T14:02:15.002Z</time></trkpt><trkpt lat="44.82951590805708" lon="4.802913405548129"><ele>182.0</ele><time>2026-04-19T14:02:16.002Z</time></trkpt><trkpt lat="44.82959270269062" lon="4.802956828162866"><ele>179.0</ele><time>2026-04-19T14:02:17.002Z</time></trkpt><trkpt lat="44.829677761522504" lon="4.803002079789445"><ele>176.0</ele><time>2026-04-19T14:02:18.002Z</time></trkpt><trkpt lat="44.8297608696303" lon="4.803049082171795"><ele>173.0</ele><time>2026-04-19T14:02:19.002Z</time></trkpt><trkpt lat="44.82984216038882" lon="4.803096123661938"><ele>173.0</ele><time>2026-04-19T14:02:20.002Z</time></trkpt><trkpt lat="44.82991330552185" lon="4.803137247476475"><ele>173.0</ele><time>2026-04-19T14:02:21.002Z</time></trkpt><trkpt lat="44.82998100282186" lon="4.803175374990769"><ele>173.0</ele><time>2026-04-19T14:02:22.002Z</time></trkpt><trkpt lat="44.83009374501438" lon="4.803221740089572"><ele>173.0</ele><time>2026-04-19T14:02:24.002Z</time></trkpt><trkpt lat="44.83019736961393" lon="4.803293230102654"><ele>173.0</ele><time>2026-04-19T14:02:26.002Z</time></trkpt><trkpt lat="44.83024771875965" lon="4.803346852984061"><ele>173.0</ele><time>2026-04-19T14:02:27.002Z</time></trkpt><trkpt lat="44.830293799616896" lon="4.803412010113924"><ele>171.66666666666666</ele><time>2026-04-19T14:02:28.002Z</time></trkpt><trkpt lat="44.83032826698115" lon="4.803491222401062"><ele>170.33333333333331</ele><time>2026-04-19T14:02:29.002Z</time></trkpt><trkpt lat="44.83037392980277" lon="4.803564002933346"><ele>169.0</ele><time>2026-04-19T14:02:30.002Z</time></trkpt><trkpt lat="44.83042624440693" lon="4.803614082302837"><ele>167.66666666666666</ele><time>2026-04-19T14:02:31.002Z</time></trkpt><trkpt lat="44.83048833160147" lon="4.8036509421452935"><ele>166.33333333333334</ele><time>2026-04-19T14:02:32.002Z</time></trkpt><trkpt lat="44.830615760038945" lon="4.803638628128777"><ele>165.0</ele><time>2026-04-19T14:02:34.002Z</time></trkpt><trkpt lat="44.83071737349764" lon="4.803549615706124"><ele>165.0</ele><time>2026-04-19T14:02:36.002Z</time></trkpt><trkpt lat="44.8307973966584" lon="4.803531867261955"><ele>165.0</ele><time>2026-04-19T14:02:38.002Z</time></trkpt><trkpt lat="44.83089504574737" lon="4.8036299807445415"><ele>165.0</ele><time>2026-04-19T14:02:40.002Z</time></trkpt><trkpt lat="44.83098353592635" lon="4.803697490773083"><ele>165.0</ele><time>2026-04-19T14:02:42.002Z</time></trkpt><trkpt lat="44.83110445797067" lon="4.803678960846673"><ele>165.0</ele><time>2026-04-19T14:02:44.002Z</time></trkpt><trkpt lat="44.83120979671607" lon="4.80359874469746"><ele>163.8</ele><time>2026-04-19T14:02:46.002Z</time></trkpt><trkpt lat="44.831331439483094" lon="4.803547229796202"><ele>162.6</ele><time>2026-04-19T14:02:48.002Z</time></trkpt><trkpt lat="44.831445951031675" lon="4.803632176248449"><ele>161.4</ele><time>2026-04-19T14:02:50.002Z</time></trkpt><trkpt lat="44.831490375694564" lon="4.803695885166584"><ele>160.2</ele><time>2026-04-19T14:02:51.002Z</time></trkpt><trkpt lat="44.8315409069006" lon="4.80376723607756"><ele>159.0</ele><time>2026-04-19T14:02:52.002Z</time></trkpt><trkpt lat="44.83159625660056" lon="4.803830355284961"><ele>159.0</ele><time>2026-04-19T14:02:53.002Z</time></trkpt><trkpt lat="44.83165762885829" lon="4.803888668410413"><ele>159.0</ele><time>2026-04-19T14:02:54.002Z</time></trkpt><trkpt lat="44.831712273262475" lon="4.803953410704447"><ele>159.0</ele><time>2026-04-19T14:02:55.002Z</time></trkpt><trkpt lat="44.83176554146053" lon="4.804006882951877"><ele>159.0</ele><time>2026-04-19T14:02:56.002Z</time></trkpt><trkpt lat="44.831859609814536" lon="4.804115260463177"><ele>159.0</ele><time>2026-04-19T14:02:58.002Z</time></trkpt><trkpt lat="44.831910072094715" lon="4.804178270013855"><ele>159.0</ele><time>2026-04-19T14:02:59.002Z</time></trkpt><trkpt lat="44.83200488792547" lon="4.804227203851896"><ele>159.6</ele><time>2026-04-19T14:03:01.002Z</time></trkpt><trkpt lat="44.832099908210225" lon="4.80413499199082"><ele>160.2</ele><time>2026-04-19T14:03:03.002Z</time></trkpt><trkpt lat="44.83213269295037" lon="4.804054941429199"><ele>160.79999999999998</ele><time>2026-04-19T14:03:04.002Z</time></trkpt><trkpt lat="44.832154528646925" lon="4.803957733757602"><ele>161.4</ele><time>2026-04-19T14:03:05.002Z</time></trkpt><trkpt lat="44.83221310215797" lon="4.803837663639839"><ele>162.0</ele><time>2026-04-19T14:03:07.002Z</time></trkpt><trkpt lat="44.83230981518804" lon="4.803843607501619"><ele>162.0</ele><time>2026-04-19T14:03:09.002Z</time></trkpt><trkpt lat="44.832381016656896" lon="4.803979988623143"><ele>162.0</ele><time>2026-04-19T14:03:11.002Z</time></trkpt><trkpt lat="44.832395396890604" lon="4.804068483851556"><ele>162.0</ele><time>2026-04-19T14:03:12.002Z</time></trkpt><trkpt lat="44.83243579751413" lon="4.804241321375279"><ele>162.0</ele><time>2026-04-19T14:03:14.002Z</time></trkpt><trkpt lat="44.832465703523546" lon="4.804325449686607"><ele>162.0</ele><time>2026-04-19T14:03:15.002Z</time></trkpt><trkpt lat="44.83250179671148" lon="4.804421777570442"><ele>160.0</ele><time>2026-04-19T14:03:16.002Z</time></trkpt><trkpt lat="44.83253329847474" lon="4.804502307157944"><ele>158.0</ele><time>2026-04-19T14:03:17.002Z</time></trkpt><trkpt lat="44.8325787038788" lon="4.804578135563486"><ele>156.0</ele><time>2026-04-19T14:03:18.002Z</time></trkpt><trkpt lat="44.832632246059006" lon="4.804639520697087"><ele>154.0</ele><time>2026-04-19T14:03:19.002Z</time></trkpt><trkpt lat="44.83273854829953" lon="4.804701801192241"><ele>152.0</ele><time>2026-04-19T14:03:21.002Z</time></trkpt><trkpt lat="44.83283955051866" lon="4.804749234887224"><ele>150.0</ele><time>2026-04-19T14:03:23.003Z</time></trkpt><trkpt lat="44.832920999433874" lon="4.8048113960042205"><ele>149.2</ele><time>2026-04-19T14:03:25.003Z</time></trkpt><trkpt lat="44.83296462028534" lon="4.8049469898443835"><ele>148.4</ele><time>2026-04-19T14:03:27.003Z</time></trkpt><trkpt lat="44.83298425665317" lon="4.805117450814821"><ele>147.6</ele><time>2026-04-19T14:03:29.003Z</time></trkpt><trkpt lat="44.833030028874155" lon="4.805291275728905"><ele>146.8</ele><time>2026-04-19T14:03:31.003Z</time></trkpt><trkpt lat="44.83303723112574" lon="4.805384990990042"><ele>146.0</ele><time>2026-04-19T14:03:32.003Z</time></trkpt><trkpt lat="44.83301835230909" lon="4.805532332951836"><ele>145.0</ele><time>2026-04-19T14:03:34.003Z</time></trkpt><trkpt lat="44.83298950889317" lon="4.805612698120393"><ele>144.0</ele><time>2026-04-19T14:03:35.003Z</time></trkpt><trkpt lat="44.832893371094755" lon="4.8056888861567275"><ele>143.0</ele><time>2026-04-19T14:03:37.003Z</time></trkpt><trkpt lat="44.83282713835469" lon="4.8057155117919566"><ele>142.0</ele><time>2026-04-19T14:03:38.003Z</time></trkpt><trkpt lat="44.83276265016519" lon="4.805750903651354"><ele>141.0</ele><time>2026-04-19T14:03:39.003Z</time></trkpt><trkpt lat="44.83269589685319" lon="4.80577692635844"><ele>140.0</ele><time>2026-04-19T14:03:40.003Z</time></trkpt><trkpt lat="44.83263126100661" lon="4.805799739277983"><ele>139.0</ele><time>2026-04-19T14:03:41.003Z</time></trkpt><trkpt lat="44.832560458018705" lon="4.805831914444612"><ele>139.0</ele><time>2026-04-19T14:03:42.003Z</time></trkpt><trkpt lat="44.83248842727698" lon="4.80586629663835"><ele>139.0</ele><time>2026-04-19T14:03:43.003Z</time></trkpt><trkpt lat="44.832418896926356" lon="4.805897145682497"><ele>139.0</ele><time>2026-04-19T14:03:44.003Z</time></trkpt><trkpt lat="44.832354599051605" lon="4.805922944555687"><ele>139.0</ele><time>2026-04-19T14:03:45.003Z</time></trkpt><trkpt lat="44.83225092902481" lon="4.805953529093241"><ele>139.0</ele><time>2026-04-19T14:03:47.003Z</time></trkpt><trkpt lat="44.83214590404128" lon="4.805915415271048"><ele>139.0</ele><time>2026-04-19T14:03:49.002Z</time></trkpt><trkpt lat="44.83209959985462" lon="4.805848995988687"><ele>139.0</ele><time>2026-04-19T14:03:50.001Z</time></trkpt><trkpt lat="44.83206689620459" lon="4.805757007478621"><ele>139.0</ele><time>2026-04-19T14:03:51.001Z</time></trkpt><trkpt lat="44.83204388830078" lon="4.8056593429077585"><ele>139.0</ele><time>2026-04-19T14:03:52.001Z</time></trkpt><trkpt lat="44.83201851397304" lon="4.805573996623052"><ele>139.0</ele><time>2026-04-19T14:03:53.002Z</time></trkpt><trkpt lat="44.83196564649238" lon="4.805445865682891"><ele>139.0</ele><time>2026-04-19T14:03:55.002Z</time></trkpt><trkpt lat="44.831884787154124" lon="4.805423318599648"><ele>139.0</ele><time>2026-04-19T14:03:57.001Z</time></trkpt><trkpt lat="44.831827581910225" lon="4.805471716563024"><ele>138.0</ele><time>2026-04-19T14:03:58.002Z</time></trkpt><trkpt lat="44.83174969599192" lon="4.805586222442033"><ele>137.0</ele><time>2026-04-19T14:04:00.001Z</time></trkpt><trkpt lat="44.83166214868845" lon="4.8057099043812475"><ele>136.0</ele><time>2026-04-19T14:04:02.002Z</time></trkpt><trkpt lat="44.831555477377265" lon="4.80579992548625"><ele>135.0</ele><time>2026-04-19T14:04:04.002Z</time></trkpt><trkpt lat="44.83149992353119" lon="4.805853396272442"><ele>134.0</ele><time>2026-04-19T14:04:05.002Z</time></trkpt><trkpt lat="44.83143904551047" lon="4.805892893562685"><ele>134.0</ele><time>2026-04-19T14:04:06.002Z</time></trkpt><trkpt lat="44.83137745798471" lon="4.805921653750027"><ele>134.0</ele><time>2026-04-19T14:04:07.002Z</time></trkpt><trkpt lat="44.83131423392761" lon="4.805955987869524"><ele>134.0</ele><time>2026-04-19T14:04:08.002Z</time></trkpt><trkpt lat="44.83125074692215" lon="4.805988897813546"><ele>134.0</ele><time>2026-04-19T14:04:09.002Z</time></trkpt><trkpt lat="44.83118127471553" lon="4.806007490152525"><ele>134.0</ele><time>2026-04-19T14:04:10.002Z</time></trkpt><trkpt lat="44.831107729699376" lon="4.8060250937710896"><ele>134.0</ele><time>2026-04-19T14:04:11.002Z</time></trkpt><trkpt lat="44.831038337041335" lon="4.806042060746794"><ele>134.0</ele><time>2026-04-19T14:04:12.002Z</time></trkpt><trkpt lat="44.83097387399547" lon="4.8060706857929985"><ele>129.83333333333331</ele><time>2026-04-19T14:04:13.002Z</time></trkpt><trkpt lat="44.830909890934805" lon="4.8060853914069215"><ele>125.66666666666666</ele><time>2026-04-19T14:04:14.002Z</time></trkpt><trkpt lat="44.83079203665188" lon="4.806120714798608"><ele>121.5</ele><time>2026-04-19T14:04:16.002Z</time></trkpt><trkpt lat="44.83072412394547" lon="4.8061089439712"><ele>117.33333333333334</ele><time>2026-04-19T14:04:17.002Z</time></trkpt><trkpt lat="44.830650199746586" lon="4.806095024862265"><ele>113.16666666666667</ele><time>2026-04-19T14:04:18.002Z</time></trkpt><trkpt lat="44.83058535373677" lon="4.806075502737165"><ele>109.0</ele><time>2026-04-19T14:04:19.002Z</time></trkpt><trkpt lat="44.83046982498489" lon="4.806000215067885"><ele>110.66666666666667</ele><time>2026-04-19T14:04:21.002Z</time></trkpt><trkpt lat="44.830399326508754" lon="4.805991282732029"><ele>112.33333333333334</ele><time>2026-04-19T14:04:22.002Z</time></trkpt><trkpt lat="44.83032988633924" lon="4.805969488059316"><ele>114.0</ele><time>2026-04-19T14:04:23.002Z</time></trkpt><trkpt lat="44.83025328406949" lon="4.805966718787768"><ele>115.66666666666666</ele><time>2026-04-19T14:04:24.002Z</time></trkpt><trkpt lat="44.83018185181731" lon="4.80595796635752"><ele>117.33333333333333</ele><time>2026-04-19T14:04:25.002Z</time></trkpt><trkpt lat="44.830108273121226" lon="4.805941301251951"><ele>119.0</ele><time>2026-04-19T14:04:26.002Z</time></trkpt><trkpt lat="44.83002948325675" lon="4.805895314076986"><ele>118.99999999999999</ele><time>2026-04-19T14:04:27.002Z</time></trkpt><trkpt lat="44.8299531549177" lon="4.805845269801241"><ele>119.0</ele><time>2026-04-19T14:04:28.002Z</time></trkpt><trkpt lat="44.8298775811324" lon="4.8057889186203875"><ele>119.0</ele><time>2026-04-19T14:04:29.002Z</time></trkpt><trkpt lat="44.829802575506" lon="4.805736530238444"><ele>119.0</ele><time>2026-04-19T14:04:30.002Z</time></trkpt><trkpt lat="44.829721981774924" lon="4.805688466647881"><ele>118.99999999999999</ele><time>2026-04-19T14:04:31.002Z</time></trkpt><trkpt lat="44.82964317408794" lon="4.80564062095389"><ele>119.0</ele><time>2026-04-19T14:04:32.002Z</time></trkpt><trkpt lat="44.82955873273882" lon="4.805594801330487"><ele>118.99999999999999</ele><time>2026-04-19T14:04:33.002Z</time></trkpt><trkpt lat="44.82948765784911" lon="4.805544996545625"><ele>119.0</ele><time>2026-04-19T14:04:34.002Z</time></trkpt><trkpt lat="44.82941020213256" lon="4.805490441298878"><ele>119.0</ele><time>2026-04-19T14:04:35.002Z</time></trkpt><trkpt lat="44.82933296418789" lon="4.805449266363463"><ele>119.0</ele><time>2026-04-19T14:04:36.002Z</time></trkpt><trkpt lat="44.82927042647398" lon="4.8053981273404665"><ele>118.99999999999999</ele><time>2026-04-19T14:04:37.002Z</time></trkpt><trkpt lat="44.82919991371156" lon="4.805357046157057"><ele>119.0</ele><time>2026-04-19T14:04:38.002Z</time></trkpt><trkpt lat="44.829121738727295" lon="4.805331957676604"><ele>120.66666666666666</ele><time>2026-04-19T14:04:39.002Z</time></trkpt><trkpt lat="44.82904227489453" lon="4.805317390103842"><ele>122.33333333333333</ele><time>2026-04-19T14:04:40.002Z</time></trkpt><trkpt lat="44.82897067710442" lon="4.805307159829346"><ele>124.0</ele><time>2026-04-19T14:04:41.002Z</time></trkpt><trkpt lat="44.82889808691173" lon="4.805274716129788"><ele>125.66666666666666</ele><time>2026-04-19T14:04:42.002Z</time></trkpt><trkpt lat="44.828834486430516" lon="4.805217682403393"><ele>127.33333333333333</ele><time>2026-04-19T14:04:43.002Z</time></trkpt><trkpt lat="44.82877193801796" lon="4.805156479180723"><ele>129.0</ele><time>2026-04-19T14:04:44.002Z</time></trkpt><trkpt lat="44.82870847262402" lon="4.805090768596468"><ele>129.0</ele><time>2026-04-19T14:04:45.002Z</time></trkpt><trkpt lat="44.828648094146835" lon="4.80502222109129"><ele>129.0</ele><time>2026-04-19T14:04:46.002Z</time></trkpt><trkpt lat="44.82859124236022" lon="4.804963903661749"><ele>129.0</ele><time>2026-04-19T14:04:47.002Z</time></trkpt><trkpt lat="44.828538654443605" lon="4.804896678584841"><ele>129.0</ele><time>2026-04-19T14:04:48.002Z</time></trkpt><trkpt lat="44.828446358432885" lon="4.8047969731753355"><ele>129.0</ele><time>2026-04-19T14:04:50.002Z</time></trkpt><trkpt lat="44.82835998806016" lon="4.804707096301702"><ele>129.0</ele><time>2026-04-19T14:04:52.002Z</time></trkpt><trkpt lat="44.828257642820525" lon="4.804632215460046"><ele>126.0</ele><time>2026-04-19T14:04:54.002Z</time></trkpt><trkpt lat="44.82813789416446" lon="4.804631950085352"><ele>123.0</ele><time>2026-04-19T14:04:56.002Z</time></trkpt><trkpt lat="44.82807670712251" lon="4.80460592414339"><ele>120.0</ele><time>2026-04-19T14:04:57.002Z</time></trkpt><trkpt lat="44.82801404067384" lon="4.804582639764361"><ele>117.0</ele><time>2026-04-19T14:04:58.002Z</time></trkpt><trkpt lat="44.82794707077415" lon="4.804558916933085"><ele>114.0</ele><time>2026-04-19T14:04:59.002Z</time></trkpt><trkpt lat="44.827840077189485" lon="4.804504860225837"><ele>111.0</ele><time>2026-04-19T14:05:01.002Z</time></trkpt><trkpt lat="44.8277453667074" lon="4.804439682917574"><ele>111.0</ele><time>2026-04-19T14:05:03.002Z</time></trkpt><trkpt lat="44.82765655265688" lon="4.804369178853006"><ele>111.0</ele><time>2026-04-19T14:05:05.002Z</time></trkpt><trkpt lat="44.82755323451255" lon="4.804277896231898"><ele>111.0</ele><time>2026-04-19T14:05:07.002Z</time></trkpt><trkpt lat="44.82749664273846" lon="4.804234086437431"><ele>111.0</ele><time>2026-04-19T14:05:08.002Z</time></trkpt><trkpt lat="44.827438331021455" lon="4.804188491305222"><ele>111.0</ele><time>2026-04-19T14:05:09.002Z</time></trkpt><trkpt lat="44.827383763064525" lon="4.804132739355254"><ele>111.0</ele><time>2026-04-19T14:05:10.002Z</time></trkpt><trkpt lat="44.827331688742255" lon="4.80407505119885"><ele>110.8</ele><time>2026-04-19T14:05:11.002Z</time></trkpt><trkpt lat="44.82728138978289" lon="4.804008999571395"><ele>110.6</ele><time>2026-04-19T14:05:12.002Z</time></trkpt><trkpt lat="44.82719272742195" lon="4.803883667200599"><ele>110.4</ele><time>2026-04-19T14:05:14.002Z</time></trkpt><trkpt lat="44.82709184848057" lon="4.8037747482066075"><ele>110.2</ele><time>2026-04-19T14:05:16.002Z</time></trkpt><trkpt lat="44.826998972176625" lon="4.803663134245482"><ele>110.0</ele><time>2026-04-19T14:05:18.002Z</time></trkpt><trkpt lat="44.82691169256996" lon="4.803546835228836"><ele>108.99999999999999</ele><time>2026-04-19T14:05:20.002Z</time></trkpt><trkpt lat="44.82685897785411" lon="4.803475883133263"><ele>108.0</ele><time>2026-04-19T14:05:21.002Z</time></trkpt><trkpt lat="44.826803934024085" lon="4.803412783896327"><ele>107.0</ele><time>2026-04-19T14:05:22.002Z</time></trkpt><trkpt lat="44.82674966850002" lon="4.803356222645573"><ele>106.0</ele><time>2026-04-19T14:05:23.002Z</time></trkpt><trkpt lat="44.82666217989043" lon="4.80324794244114"><ele>104.99999999999999</ele><time>2026-04-19T14:05:25.002Z</time></trkpt><trkpt lat="44.826600298779624" lon="4.803151019597485"><ele>104.0</ele><time>2026-04-19T14:05:27.002Z</time></trkpt><trkpt lat="44.82655562306175" lon="4.803082491082311"><ele>103.99999999999999</ele><time>2026-04-19T14:05:29.002Z</time></trkpt><trkpt lat="44.826489674480335" lon="4.803123658112418"><ele>104.0</ele><time>2026-04-19T14:05:36.003Z</time></trkpt><trkpt lat="44.82651353233512" lon="4.803258085915225"><ele>104.0</ele><time>2026-04-19T14:05:39.003Z</time></trkpt><trkpt lat="44.826559380861" lon="4.803338408664031"><ele>104.0</ele><time>2026-04-19T14:05:41.003Z</time></trkpt><trkpt lat="44.82661019940573" lon="4.803414395663419"><ele>103.99999999999999</ele><time>2026-04-19T14:05:43.003Z</time></trkpt><trkpt lat="44.82667096517969" lon="4.803483314656091"><ele>104.0</ele><time>2026-04-19T14:05:45.003Z</time></trkpt><trkpt lat="44.826724198096095" lon="4.803556935585166"><ele>103.16666666666666</ele><time>2026-04-19T14:05:47.003Z</time></trkpt><trkpt lat="44.8267930853307" lon="4.803617803972915"><ele>102.33333333333333</ele><time>2026-04-19T14:05:49.003Z</time></trkpt><trkpt lat="44.826864814984994" lon="4.80369426107975"><ele>101.5</ele><time>2026-04-19T14:05:51.003Z</time></trkpt><trkpt lat="44.82691845265132" lon="4.803780652395882"><ele>100.66666666666666</ele><time>2026-04-19T14:05:53.003Z</time></trkpt><trkpt lat="44.82698287374139" lon="4.8038570875461435"><ele>99.83333333333333</ele><time>2026-04-19T14:05:55.001Z</time></trkpt><trkpt lat="44.82705879794547" lon="4.803914978530711"><ele>99.0</ele><time>2026-04-19T14:05:57.002Z</time></trkpt><trkpt lat="44.827129851991316" lon="4.803981562539667"><ele>99.16666666666667</ele><time>2026-04-19T14:05:59.001Z</time></trkpt><trkpt lat="44.82717934272958" lon="4.804067933948506"><ele>99.33333333333334</ele><time>2026-04-19T14:06:01.001Z</time></trkpt><trkpt lat="44.82724048445514" lon="4.80413993380135"><ele>99.5</ele><time>2026-04-19T14:06:03.002Z</time></trkpt><trkpt lat="44.82729863975317" lon="4.804219398156984"><ele>99.66666666666667</ele><time>2026-04-19T14:06:05.002Z</time></trkpt><trkpt lat="44.827357498384906" lon="4.8042948152662"><ele>99.83333333333334</ele><time>2026-04-19T14:06:07.001Z</time></trkpt><trkpt lat="44.82742357659728" lon="4.8043635336086465"><ele>100.0</ele><time>2026-04-19T14:06:09.001Z</time></trkpt><trkpt lat="44.82748728384926" lon="4.8044400400139144"><ele>100.00000000000001</ele><time>2026-04-19T14:06:11.001Z</time></trkpt><trkpt lat="44.82755950685206" lon="4.804514817910583"><ele>100.0</ele><time>2026-04-19T14:06:13.001Z</time></trkpt><trkpt lat="44.82762524623583" lon="4.804581224161259"><ele>100.0</ele><time>2026-04-19T14:06:15.001Z</time></trkpt><trkpt lat="44.827688634561866" lon="4.804649488984323"><ele>100.0</ele><time>2026-04-19T14:06:17.001Z</time></trkpt><trkpt lat="44.82775979118456" lon="4.804718748587319"><ele>100.00000000000001</ele><time>2026-04-19T14:06:19.001Z</time></trkpt><trkpt lat="44.8278392008979" lon="4.804772693140939"><ele>100.0</ele><time>2026-04-19T14:06:21.001Z</time></trkpt><trkpt lat="44.827920335880755" lon="4.804847057093639"><ele>100.33333333333334</ele><time>2026-04-19T14:06:23.001Z</time></trkpt><trkpt lat="44.82799257036921" lon="4.804909946032995"><ele>100.66666666666667</ele><time>2026-04-19T14:06:25.001Z</time></trkpt><trkpt lat="44.82806244437805" lon="4.804983867260598"><ele>101.0</ele><time>2026-04-19T14:06:27.001Z</time></trkpt><trkpt lat="44.82813425629042" lon="4.805057788839189"><ele>101.33333333333334</ele><time>2026-04-19T14:06:29.001Z</time></trkpt><trkpt lat="44.82820289007879" lon="4.8051135386274515"><ele>101.66666666666667</ele><time>2026-04-19T14:06:31.001Z</time></trkpt><trkpt lat="44.82829360002214" lon="4.805198375231911"><ele>102.0</ele><time>2026-04-19T14:06:33.001Z</time></trkpt><trkpt lat="44.82836788787676" lon="4.805275409836707"><ele>102.0</ele><time>2026-04-19T14:06:35.002Z</time></trkpt><trkpt lat="44.82843985216057" lon="4.805328381301323"><ele>102.0</ele><time>2026-04-19T14:06:37.002Z</time></trkpt><trkpt lat="44.828506626950904" lon="4.805392290037206"><ele>102.0</ele><time>2026-04-19T14:06:39.002Z</time></trkpt><trkpt lat="44.82857747182123" lon="4.805461306687859"><ele>102.0</ele><time>2026-04-19T14:06:41.002Z</time></trkpt><trkpt lat="44.82865415368121" lon="4.805520562577785"><ele>102.0</ele><time>2026-04-19T14:06:43.002Z</time></trkpt><trkpt lat="44.828740982192365" lon="4.8055833161262695"><ele>102.0</ele><time>2026-04-19T14:06:45.002Z</time></trkpt><trkpt lat="44.82881957392293" lon="4.805633232126844"><ele>102.83333333333333</ele><time>2026-04-19T14:06:47.002Z</time></trkpt><trkpt lat="44.82890142406904" lon="4.805700741468084"><ele>103.66666666666666</ele><time>2026-04-19T14:06:49.002Z</time></trkpt><trkpt lat="44.82897347786" lon="4.8057541484074715"><ele>104.5</ele><time>2026-04-19T14:06:51.002Z</time></trkpt><trkpt lat="44.829046278940325" lon="4.805802952019904"><ele>105.33333333333333</ele><time>2026-04-19T14:06:53.002Z</time></trkpt><trkpt lat="44.82913667460732" lon="4.805852634421682"><ele>106.16666666666666</ele><time>2026-04-19T14:06:55.002Z</time></trkpt><trkpt lat="44.82921698368281" lon="4.805905315992493"><ele>107.0</ele><time>2026-04-19T14:06:57.002Z</time></trkpt><trkpt lat="44.82930321035313" lon="4.805968272676027"><ele>105.99999999999999</ele><time>2026-04-19T14:06:59.002Z</time></trkpt><trkpt lat="44.82937944776131" lon="4.806022916433138"><ele>105.0</ele><time>2026-04-19T14:07:01.002Z</time></trkpt><trkpt lat="44.82945692707896" lon="4.806074575649549"><ele>104.0</ele><time>2026-04-19T14:07:03.002Z</time></trkpt><trkpt lat="44.829527133553015" lon="4.806114934998409"><ele>103.0</ele><time>2026-04-19T14:07:05.002Z</time></trkpt><trkpt lat="44.82958739821803" lon="4.806161456631495"><ele>101.99999999999999</ele><time>2026-04-19T14:07:07.002Z</time></trkpt><trkpt lat="44.82964887285382" lon="4.80621956907558"><ele>101.0</ele><time>2026-04-19T14:07:09.002Z</time></trkpt><trkpt lat="44.82971892847238" lon="4.80628416456084"><ele>100.99999999999999</ele><time>2026-04-19T14:07:11.002Z</time></trkpt><trkpt lat="44.82979769105359" lon="4.806343750660774"><ele>101.0</ele><time>2026-04-19T14:07:13.002Z</time></trkpt><trkpt lat="44.82987915023136" lon="4.8064077570985475"><ele>101.0</ele><time>2026-04-19T14:07:15.002Z</time></trkpt><trkpt lat="44.82994708128165" lon="4.806463512494171"><ele>101.0</ele><time>2026-04-19T14:07:17.002Z</time></trkpt><trkpt lat="44.83002592570103" lon="4.806534345230883"><ele>100.99999999999999</ele><time>2026-04-19T14:07:19.002Z</time></trkpt><trkpt lat="44.83009696161814" lon="4.806592767714535"><ele>101.0</ele><time>2026-04-19T14:07:21.002Z</time></trkpt><trkpt lat="44.830157907218215" lon="4.8066551147951335"><ele>100.49999999999999</ele><time>2026-04-19T14:07:23.002Z</time></trkpt><trkpt lat="44.83022291431762" lon="4.806708813287573"><ele>100.0</ele><time>2026-04-19T14:07:25.002Z</time></trkpt><trkpt lat="44.83029356675241" lon="4.806773150035785"><ele>99.5</ele><time>2026-04-19T14:07:27.002Z</time></trkpt><trkpt lat="44.8303677133735" lon="4.806823314276739"><ele>99.0</ele><time>2026-04-19T14:07:29.002Z</time></trkpt><trkpt lat="44.8304367974848" lon="4.8068855986040235"><ele>98.49999999999999</ele><time>2026-04-19T14:07:31.002Z</time></trkpt><trkpt lat="44.83050812262743" lon="4.806962873991533"><ele>98.0</ele><time>2026-04-19T14:07:33.002Z</time></trkpt><trkpt lat="44.83058767451303" lon="4.807018848179317"><ele>97.99999999999999</ele><time>2026-04-19T14:07:35.002Z</time></trkpt><trkpt lat="44.83065288421681" lon="4.8070702906786815"><ele>98.0</ele><time>2026-04-19T14:07:37.002Z</time></trkpt><trkpt lat="44.83073489634927" lon="4.807152476086771"><ele>98.0</ele><time>2026-04-19T14:07:39.002Z</time></trkpt><trkpt lat="44.830810349552124" lon="4.807210025570573"><ele>98.0</ele><time>2026-04-19T14:07:41.002Z</time></trkpt><trkpt lat="44.8308748650126" lon="4.8072603616086615"><ele>97.99999999999999</ele><time>2026-04-19T14:07:43.002Z</time></trkpt><trkpt lat="44.830936473825986" lon="4.807315669239279"><ele>98.0</ele><time>2026-04-19T14:07:45.002Z</time></trkpt><trkpt lat="44.83101549429939" lon="4.807391294639797"><ele>98.2</ele><time>2026-04-19T14:07:47.002Z</time></trkpt><trkpt lat="44.831097214074184" lon="4.807459422047498"><ele>98.4</ele><time>2026-04-19T14:07:49.002Z</time></trkpt><trkpt lat="44.831179296079654" lon="4.807546524814472"><ele>98.60000000000001</ele><time>2026-04-19T14:07:51.002Z</time></trkpt><trkpt lat="44.83126090916347" lon="4.807622369227189"><ele>98.80000000000001</ele><time>2026-04-19T14:07:53.002Z</time></trkpt><trkpt lat="44.83133278257748" lon="4.807700753719967"><ele>99.0</ele><time>2026-04-19T14:07:55.002Z</time></trkpt><trkpt lat="44.831406148825835" lon="4.80778377241749"><ele>99.0</ele><time>2026-04-19T14:07:57.002Z</time></trkpt><trkpt lat="44.831473435392546" lon="4.8078597984429265"><ele>99.0</ele><time>2026-04-19T14:07:59.002Z</time></trkpt><trkpt lat="44.831524017247496" lon="4.807941529422115"><ele>99.0</ele><time>2026-04-19T14:08:01.001Z</time></trkpt><trkpt lat="44.83158211072019" lon="4.808018476776458"><ele>99.0</ele><time>2026-04-19T14:08:03.001Z</time></trkpt><trkpt lat="44.8316270990238" lon="4.808102837049601"><ele>99.0</ele><time>2026-04-19T14:08:05.001Z</time></trkpt><trkpt lat="44.8316715788266" lon="4.808172342496855"><ele>99.0</ele><time>2026-04-19T14:08:07.001Z</time></trkpt><trkpt lat="44.831711348050874" lon="4.808247688337906"><ele>99.0</ele><time>2026-04-19T14:08:09.001Z</time></trkpt><trkpt lat="44.83172425669954" lon="4.808363218967975"><ele>99.0</ele><time>2026-04-19T14:08:12.001Z</time></trkpt><trkpt lat="44.83165436612406" lon="4.808420373533233"><ele>99.0</ele><time>2026-04-19T14:08:14.001Z</time></trkpt><trkpt lat="44.83156289003263" lon="4.808532208477598"><ele>99.0</ele><time>2026-04-19T14:08:16.001Z</time></trkpt><trkpt lat="44.831512320158396" lon="4.808589314460414"><ele>99.0</ele><time>2026-04-19T14:08:17.001Z</time></trkpt><trkpt lat="44.83146060426608" lon="4.808646575142858"><ele>99.0</ele><time>2026-04-19T14:08:18.001Z</time></trkpt><trkpt lat="44.8314109816694" lon="4.808709402185477"><ele>98.66666666666667</ele><time>2026-04-19T14:08:19.001Z</time></trkpt><trkpt lat="44.831355836718934" lon="4.808760224770404"><ele>98.33333333333334</ele><time>2026-04-19T14:08:20.001Z</time></trkpt><trkpt lat="44.831301696175686" lon="4.808811692992438"><ele>98.0</ele><time>2026-04-19T14:08:21.001Z</time></trkpt><trkpt lat="44.83124785283628" lon="4.808874060944032"><ele>97.66666666666667</ele><time>2026-04-19T14:08:22.001Z</time></trkpt><trkpt lat="44.83116064060107" lon="4.808963792668466"><ele>97.33333333333334</ele><time>2026-04-19T14:08:24.001Z</time></trkpt><trkpt lat="44.8310664894078" lon="4.809032714389675"><ele>97.0</ele><time>2026-04-19T14:08:26.001Z</time></trkpt><trkpt lat="44.830963176640594" lon="4.80905098265979"><ele>97.0</ele><time>2026-04-19T14:08:28.001Z</time></trkpt><trkpt lat="44.83087014415915" lon="4.809116954175839"><ele>97.0</ele><time>2026-04-19T14:08:30.001Z</time></trkpt><trkpt lat="44.83077962437362" lon="4.809199081929544"><ele>97.0</ele><time>2026-04-19T14:08:32.001Z</time></trkpt><trkpt lat="44.83069494533099" lon="4.80926733360834"><ele>97.0</ele><time>2026-04-19T14:08:34.001Z</time></trkpt><trkpt lat="44.830612130397256" lon="4.809339059657117"><ele>97.0</ele><time>2026-04-19T14:08:36.001Z</time></trkpt><trkpt lat="44.83054960181521" lon="4.809383385216778"><ele>97.0</ele><time>2026-04-19T14:08:38.001Z</time></trkpt></trkseg></trk></gpx>